<?xml version="1.0" encoding="UTF-8" standalone="no" ?>
<gpx xmlns="http://www.topografix.com/GPX/1/1" xmlns:xsi="http://www.w3.org/2001/XMLSchema-instance" xsi:schemaLocation="http://www.topografix.com/GPX/1/1 http://www.topografix.com/GPX/1/1/gpx.xsd" version="1.1" creator="VisuGPX - https://www.visugpx.com">
  <metadata>
    <name>Créon - Camarsac facile</name>
    <desc><![CDATA[Randonnée VTT facile]]></desc>
  </metadata>
  <trk>
    <name><![CDATA[Creon camarsac facile]]></name>
    <trkseg>
      <trkpt lat="44.77633" lon="-0.34975">
        <ele>96</ele>
        <time>2013-10-05T12:16:28Z</time>
      </trkpt>
      <trkpt lat="44.77636" lon="-0.34977">
        <ele>96</ele>
        <time>2013-10-05T12:16:48Z</time>
      </trkpt>
      <trkpt lat="44.77643" lon="-0.34979">
        <ele>97</ele>
        <time>2013-10-05T12:17:03Z</time>
      </trkpt>
      <trkpt lat="44.77646" lon="-0.34976">
        <ele>97</ele>
        <time>2013-10-05T12:17:24Z</time>
      </trkpt>
      <trkpt lat="44.77641" lon="-0.34979">
        <ele>96</ele>
        <time>2013-10-05T12:17:47Z</time>
      </trkpt>
      <trkpt lat="44.77643" lon="-0.34981">
        <ele>97</ele>
        <time>2013-10-05T12:18:12Z</time>
      </trkpt>
      <trkpt lat="44.77644" lon="-0.34982">
        <ele>97</ele>
        <time>2013-10-05T12:18:35Z</time>
      </trkpt>
      <trkpt lat="44.77645" lon="-0.34981">
        <ele>97</ele>
        <time>2013-10-05T12:19:00Z</time>
      </trkpt>
      <trkpt lat="44.77645" lon="-0.34981">
        <ele>97</ele>
        <time>2013-10-05T12:19:22Z</time>
      </trkpt>
      <trkpt lat="44.77645" lon="-0.34979">
        <ele>97</ele>
        <time>2013-10-05T12:19:46Z</time>
      </trkpt>
      <trkpt lat="44.77645" lon="-0.34979">
        <ele>97</ele>
        <time>2013-10-05T12:20:07Z</time>
      </trkpt>
      <trkpt lat="44.77645" lon="-0.34979">
        <ele>97</ele>
        <time>2013-10-05T12:20:33Z</time>
      </trkpt>
      <trkpt lat="44.77646" lon="-0.34978">
        <ele>97</ele>
        <time>2013-10-05T12:20:59Z</time>
      </trkpt>
      <trkpt lat="44.77646" lon="-0.34978">
        <ele>97</ele>
        <time>2013-10-05T12:21:22Z</time>
      </trkpt>
      <trkpt lat="44.77646" lon="-0.34978">
        <ele>97</ele>
        <time>2013-10-05T12:21:43Z</time>
      </trkpt>
      <trkpt lat="44.77647" lon="-0.34978">
        <ele>97</ele>
        <time>2013-10-05T12:22:03Z</time>
      </trkpt>
      <trkpt lat="44.77647" lon="-0.34978">
        <ele>97</ele>
        <time>2013-10-05T12:22:20Z</time>
      </trkpt>
      <trkpt lat="44.77647" lon="-0.34977">
        <ele>97</ele>
        <time>2013-10-05T12:22:39Z</time>
      </trkpt>
      <trkpt lat="44.77647" lon="-0.34977">
        <ele>97</ele>
        <time>2013-10-05T12:23:01Z</time>
      </trkpt>
      <trkpt lat="44.77647" lon="-0.34977">
        <ele>97</ele>
        <time>2013-10-05T12:23:22Z</time>
      </trkpt>
      <trkpt lat="44.77646" lon="-0.34977">
        <ele>97</ele>
        <time>2013-10-05T12:23:50Z</time>
      </trkpt>
      <trkpt lat="44.77645" lon="-0.34977">
        <ele>97</ele>
        <time>2013-10-05T12:24:16Z</time>
      </trkpt>
      <trkpt lat="44.77645" lon="-0.34977">
        <ele>97</ele>
        <time>2013-10-05T12:24:43Z</time>
      </trkpt>
      <trkpt lat="44.77645" lon="-0.34977">
        <ele>97</ele>
        <time>2013-10-05T12:25:09Z</time>
      </trkpt>
      <trkpt lat="44.77645" lon="-0.34977">
        <ele>97</ele>
        <time>2013-10-05T12:25:35Z</time>
      </trkpt>
      <trkpt lat="44.77645" lon="-0.34977">
        <ele>97</ele>
        <time>2013-10-05T12:25:56Z</time>
      </trkpt>
      <trkpt lat="44.77645" lon="-0.34977">
        <ele>97</ele>
        <time>2013-10-05T12:26:15Z</time>
      </trkpt>
      <trkpt lat="44.77645" lon="-0.34977">
        <ele>97</ele>
        <time>2013-10-05T12:26:28Z</time>
      </trkpt>
      <trkpt lat="44.77646" lon="-0.34977">
        <ele>97</ele>
        <time>2013-10-05T12:26:45Z</time>
      </trkpt>
      <trkpt lat="44.77645" lon="-0.34977">
        <ele>97</ele>
        <time>2013-10-05T12:26:59Z</time>
      </trkpt>
      <trkpt lat="44.77647" lon="-0.34977">
        <ele>97</ele>
        <time>2013-10-05T12:27:09Z</time>
      </trkpt>
      <trkpt lat="44.77664" lon="-0.34979">
        <ele>98</ele>
        <time>2013-10-05T12:27:18Z</time>
      </trkpt>
      <trkpt lat="44.7769" lon="-0.34995">
        <ele>99</ele>
        <time>2013-10-05T12:27:28Z</time>
      </trkpt>
      <trkpt lat="44.77707" lon="-0.35009">
        <ele>100</ele>
        <time>2013-10-05T12:27:36Z</time>
      </trkpt>
      <trkpt lat="44.77727" lon="-0.35023">
        <ele>100</ele>
        <time>2013-10-05T12:27:44Z</time>
      </trkpt>
      <trkpt lat="44.77754" lon="-0.35041">
        <ele>101</ele>
        <time>2013-10-05T12:27:53Z</time>
      </trkpt>
      <trkpt lat="44.77782" lon="-0.35061">
        <ele>101</ele>
        <time>2013-10-05T12:28:02Z</time>
      </trkpt>
      <trkpt lat="44.77817" lon="-0.35093">
        <ele>102</ele>
        <time>2013-10-05T12:28:14Z</time>
      </trkpt>
      <trkpt lat="44.77844" lon="-0.35127">
        <ele>102</ele>
        <time>2013-10-05T12:28:24Z</time>
      </trkpt>
      <trkpt lat="44.77872" lon="-0.35181">
        <ele>102</ele>
        <time>2013-10-05T12:28:37Z</time>
      </trkpt>
      <trkpt lat="44.77889" lon="-0.35214">
        <ele>102</ele>
        <time>2013-10-05T12:28:46Z</time>
      </trkpt>
      <trkpt lat="44.77909" lon="-0.35247">
        <ele>102</ele>
        <time>2013-10-05T12:28:55Z</time>
      </trkpt>
      <trkpt lat="44.77938" lon="-0.35292">
        <ele>102</ele>
        <time>2013-10-05T12:29:07Z</time>
      </trkpt>
      <trkpt lat="44.77964" lon="-0.35329">
        <ele>102</ele>
        <time>2013-10-05T12:29:17Z</time>
      </trkpt>
      <trkpt lat="44.77997" lon="-0.35373">
        <ele>102</ele>
        <time>2013-10-05T12:29:30Z</time>
      </trkpt>
      <trkpt lat="44.78023" lon="-0.35418">
        <ele>102</ele>
        <time>2013-10-05T12:29:41Z</time>
      </trkpt>
      <trkpt lat="44.7804" lon="-0.35446">
        <ele>102</ele>
        <time>2013-10-05T12:29:48Z</time>
      </trkpt>
      <trkpt lat="44.78064" lon="-0.35485">
        <ele>102</ele>
        <time>2013-10-05T12:29:58Z</time>
      </trkpt>
      <trkpt lat="44.78089" lon="-0.35522">
        <ele>102</ele>
        <time>2013-10-05T12:30:09Z</time>
      </trkpt>
      <trkpt lat="44.78119" lon="-0.35551">
        <ele>103</ele>
        <time>2013-10-05T12:30:19Z</time>
      </trkpt>
      <trkpt lat="44.78153" lon="-0.35568">
        <ele>103</ele>
        <time>2013-10-05T12:30:28Z</time>
      </trkpt>
      <trkpt lat="44.78182" lon="-0.35586">
        <ele>103</ele>
        <time>2013-10-05T12:30:36Z</time>
      </trkpt>
      <trkpt lat="44.78215" lon="-0.3561">
        <ele>102</ele>
        <time>2013-10-05T12:30:44Z</time>
      </trkpt>
      <trkpt lat="44.78263" lon="-0.35654">
        <ele>100</ele>
        <time>2013-10-05T12:30:54Z</time>
      </trkpt>
      <trkpt lat="44.78313" lon="-0.35703">
        <ele>99</ele>
        <time>2013-10-05T12:31:04Z</time>
      </trkpt>
      <trkpt lat="44.78362" lon="-0.35743">
        <ele>97</ele>
        <time>2013-10-05T12:31:13Z</time>
      </trkpt>
      <trkpt lat="44.78415" lon="-0.35777">
        <ele>98</ele>
        <time>2013-10-05T12:31:23Z</time>
      </trkpt>
      <trkpt lat="44.7847" lon="-0.35802">
        <ele>98</ele>
        <time>2013-10-05T12:31:33Z</time>
      </trkpt>
      <trkpt lat="44.78527" lon="-0.35828">
        <ele>98</ele>
        <time>2013-10-05T12:31:44Z</time>
      </trkpt>
      <trkpt lat="44.7858" lon="-0.35854">
        <ele>98</ele>
        <time>2013-10-05T12:31:55Z</time>
      </trkpt>
      <trkpt lat="44.78626" lon="-0.35877">
        <ele>97</ele>
        <time>2013-10-05T12:32:05Z</time>
      </trkpt>
      <trkpt lat="44.78665" lon="-0.35894">
        <ele>96</ele>
        <time>2013-10-05T12:32:14Z</time>
      </trkpt>
      <trkpt lat="44.78707" lon="-0.35907">
        <ele>96</ele>
        <time>2013-10-05T12:32:23Z</time>
      </trkpt>
      <trkpt lat="44.78755" lon="-0.35915">
        <ele>97</ele>
        <time>2013-10-05T12:32:33Z</time>
      </trkpt>
      <trkpt lat="44.78817" lon="-0.35922">
        <ele>97</ele>
        <time>2013-10-05T12:32:45Z</time>
      </trkpt>
      <trkpt lat="44.78881" lon="-0.35929">
        <ele>97</ele>
        <time>2013-10-05T12:32:58Z</time>
      </trkpt>
      <trkpt lat="44.78937" lon="-0.35937">
        <ele>97</ele>
        <time>2013-10-05T12:33:09Z</time>
      </trkpt>
      <trkpt lat="44.78975" lon="-0.35943">
        <ele>97</ele>
        <time>2013-10-05T12:33:17Z</time>
      </trkpt>
      <trkpt lat="44.79" lon="-0.35945">
        <ele>97</ele>
        <time>2013-10-05T12:33:24Z</time>
      </trkpt>
      <trkpt lat="44.7902" lon="-0.35948">
        <ele>97</ele>
        <time>2013-10-05T12:33:33Z</time>
      </trkpt>
      <trkpt lat="44.7902" lon="-0.35947">
        <ele>97</ele>
        <time>2013-10-05T12:33:43Z</time>
      </trkpt>
      <trkpt lat="44.79019" lon="-0.35947">
        <ele>97</ele>
        <time>2013-10-05T12:33:54Z</time>
      </trkpt>
      <trkpt lat="44.7902" lon="-0.35949">
        <ele>97</ele>
        <time>2013-10-05T12:34:05Z</time>
      </trkpt>
      <trkpt lat="44.7902" lon="-0.35951">
        <ele>97</ele>
        <time>2013-10-05T12:34:06Z</time>
      </trkpt>
      <trkpt lat="44.7902" lon="-0.35954">
        <ele>97</ele>
        <time>2013-10-05T12:34:07Z</time>
      </trkpt>
      <trkpt lat="44.7902" lon="-0.35957">
        <ele>97</ele>
        <time>2013-10-05T12:34:08Z</time>
      </trkpt>
      <trkpt lat="44.7902" lon="-0.35962">
        <ele>97</ele>
        <time>2013-10-05T12:34:09Z</time>
      </trkpt>
      <trkpt lat="44.79018" lon="-0.35994">
        <ele>96</ele>
        <time>2013-10-05T12:34:14Z</time>
      </trkpt>
      <trkpt lat="44.79015" lon="-0.36051">
        <ele>95</ele>
        <time>2013-10-05T12:34:20Z</time>
      </trkpt>
      <trkpt lat="44.79015" lon="-0.3606">
        <ele>95</ele>
        <time>2013-10-05T12:34:21Z</time>
      </trkpt>
      <trkpt lat="44.79016" lon="-0.3607">
        <ele>95</ele>
        <time>2013-10-05T12:34:22Z</time>
      </trkpt>
      <trkpt lat="44.79018" lon="-0.3608">
        <ele>94</ele>
        <time>2013-10-05T12:34:23Z</time>
      </trkpt>
      <trkpt lat="44.7902" lon="-0.36088">
        <ele>94</ele>
        <time>2013-10-05T12:34:24Z</time>
      </trkpt>
      <trkpt lat="44.79022" lon="-0.36097">
        <ele>94</ele>
        <time>2013-10-05T12:34:25Z</time>
      </trkpt>
      <trkpt lat="44.79025" lon="-0.36104">
        <ele>94</ele>
        <time>2013-10-05T12:34:26Z</time>
      </trkpt>
      <trkpt lat="44.79045" lon="-0.36153">
        <ele>92</ele>
        <time>2013-10-05T12:34:34Z</time>
      </trkpt>
      <trkpt lat="44.79065" lon="-0.3621">
        <ele>91</ele>
        <time>2013-10-05T12:34:43Z</time>
      </trkpt>
      <trkpt lat="44.79076" lon="-0.36259">
        <ele>89</ele>
        <time>2013-10-05T12:34:51Z</time>
      </trkpt>
      <trkpt lat="44.79081" lon="-0.36331">
        <ele>88</ele>
        <time>2013-10-05T12:35:02Z</time>
      </trkpt>
      <trkpt lat="44.79094" lon="-0.36381">
        <ele>86</ele>
        <time>2013-10-05T12:35:09Z</time>
      </trkpt>
      <trkpt lat="44.79111" lon="-0.36426">
        <ele>86</ele>
        <time>2013-10-05T12:35:17Z</time>
      </trkpt>
      <trkpt lat="44.79132" lon="-0.36485">
        <ele>88</ele>
        <time>2013-10-05T12:35:27Z</time>
      </trkpt>
      <trkpt lat="44.79148" lon="-0.36517">
        <ele>86</ele>
        <time>2013-10-05T12:35:33Z</time>
      </trkpt>
      <trkpt lat="44.79172" lon="-0.36564">
        <ele>84</ele>
        <time>2013-10-05T12:35:38Z</time>
      </trkpt>
      <trkpt lat="44.7922" lon="-0.36635">
        <ele>76</ele>
        <time>2013-10-05T12:35:45Z</time>
      </trkpt>
      <trkpt lat="44.79274" lon="-0.36721">
        <ele>70</ele>
        <time>2013-10-05T12:35:52Z</time>
      </trkpt>
      <trkpt lat="44.79282" lon="-0.36731">
        <ele>70</ele>
        <time>2013-10-05T12:35:53Z</time>
      </trkpt>
      <trkpt lat="44.7929" lon="-0.36738">
        <ele>70</ele>
        <time>2013-10-05T12:35:54Z</time>
      </trkpt>
      <trkpt lat="44.79298" lon="-0.36741">
        <ele>70</ele>
        <time>2013-10-05T12:35:55Z</time>
      </trkpt>
      <trkpt lat="44.79305" lon="-0.36741">
        <ele>70</ele>
        <time>2013-10-05T12:35:56Z</time>
      </trkpt>
      <trkpt lat="44.79318" lon="-0.36752">
        <ele>70</ele>
        <time>2013-10-05T12:36:24Z</time>
      </trkpt>
      <trkpt lat="44.79324" lon="-0.36769">
        <ele>70</ele>
        <time>2013-10-05T12:36:34Z</time>
      </trkpt>
      <trkpt lat="44.79337" lon="-0.36775">
        <ele>71</ele>
        <time>2013-10-05T12:36:43Z</time>
      </trkpt>
      <trkpt lat="44.79353" lon="-0.36777">
        <ele>71</ele>
        <time>2013-10-05T12:36:51Z</time>
      </trkpt>
      <trkpt lat="44.79357" lon="-0.36783">
        <ele>72</ele>
        <time>2013-10-05T12:36:59Z</time>
      </trkpt>
      <trkpt lat="44.79357" lon="-0.36789">
        <ele>72</ele>
        <time>2013-10-05T12:37:14Z</time>
      </trkpt>
      <trkpt lat="44.79358" lon="-0.36789">
        <ele>72</ele>
        <time>2013-10-05T12:37:27Z</time>
      </trkpt>
      <trkpt lat="44.79357" lon="-0.36791">
        <ele>72</ele>
        <time>2013-10-05T12:37:44Z</time>
      </trkpt>
      <trkpt lat="44.79369" lon="-0.36789">
        <ele>72</ele>
        <time>2013-10-05T12:37:51Z</time>
      </trkpt>
      <trkpt lat="44.79402" lon="-0.36786">
        <ele>71</ele>
        <time>2013-10-05T12:38:03Z</time>
      </trkpt>
      <trkpt lat="44.79428" lon="-0.36792">
        <ele>71</ele>
        <time>2013-10-05T12:38:13Z</time>
      </trkpt>
      <trkpt lat="44.79432" lon="-0.36826">
        <ele>73</ele>
        <time>2013-10-05T12:38:22Z</time>
      </trkpt>
      <trkpt lat="44.79436" lon="-0.36854">
        <ele>75</ele>
        <time>2013-10-05T12:38:32Z</time>
      </trkpt>
      <trkpt lat="44.79448" lon="-0.36886">
        <ele>78</ele>
        <time>2013-10-05T12:38:43Z</time>
      </trkpt>
      <trkpt lat="44.79454" lon="-0.36888">
        <ele>78</ele>
        <time>2013-10-05T12:38:47Z</time>
      </trkpt>
      <trkpt lat="44.79473" lon="-0.36883">
        <ele>78</ele>
        <time>2013-10-05T12:38:55Z</time>
      </trkpt>
      <trkpt lat="44.79498" lon="-0.36872">
        <ele>78</ele>
        <time>2013-10-05T12:39:03Z</time>
      </trkpt>
      <trkpt lat="44.79519" lon="-0.36874">
        <ele>78</ele>
        <time>2013-10-05T12:39:12Z</time>
      </trkpt>
      <trkpt lat="44.79538" lon="-0.3688">
        <ele>79</ele>
        <time>2013-10-05T12:39:20Z</time>
      </trkpt>
      <trkpt lat="44.7955" lon="-0.36902">
        <ele>81</ele>
        <time>2013-10-05T12:39:33Z</time>
      </trkpt>
      <trkpt lat="44.79555" lon="-0.36916">
        <ele>83</ele>
        <time>2013-10-05T12:39:45Z</time>
      </trkpt>
      <trkpt lat="44.79557" lon="-0.36919">
        <ele>83</ele>
        <time>2013-10-05T12:39:56Z</time>
      </trkpt>
      <trkpt lat="44.79558" lon="-0.36921">
        <ele>84</ele>
        <time>2013-10-05T12:40:10Z</time>
      </trkpt>
      <trkpt lat="44.79559" lon="-0.36921">
        <ele>84</ele>
        <time>2013-10-05T12:40:24Z</time>
      </trkpt>
      <trkpt lat="44.79561" lon="-0.36925">
        <ele>84</ele>
        <time>2013-10-05T12:40:34Z</time>
      </trkpt>
      <trkpt lat="44.79568" lon="-0.36932">
        <ele>85</ele>
        <time>2013-10-05T12:40:45Z</time>
      </trkpt>
      <trkpt lat="44.79578" lon="-0.36942">
        <ele>87</ele>
        <time>2013-10-05T12:40:54Z</time>
      </trkpt>
      <trkpt lat="44.79586" lon="-0.36951">
        <ele>88</ele>
        <time>2013-10-05T12:41:03Z</time>
      </trkpt>
      <trkpt lat="44.79595" lon="-0.3696">
        <ele>90</ele>
        <time>2013-10-05T12:41:13Z</time>
      </trkpt>
      <trkpt lat="44.79604" lon="-0.36967">
        <ele>91</ele>
        <time>2013-10-05T12:41:24Z</time>
      </trkpt>
      <trkpt lat="44.79607" lon="-0.36968">
        <ele>91</ele>
        <time>2013-10-05T12:41:33Z</time>
      </trkpt>
      <trkpt lat="44.79608" lon="-0.36968">
        <ele>91</ele>
        <time>2013-10-05T12:41:35Z</time>
      </trkpt>
      <trkpt lat="44.79619" lon="-0.36966">
        <ele>91</ele>
        <time>2013-10-05T12:41:48Z</time>
      </trkpt>
      <trkpt lat="44.79622" lon="-0.36968">
        <ele>92</ele>
        <time>2013-10-05T12:41:57Z</time>
      </trkpt>
      <trkpt lat="44.79623" lon="-0.36969">
        <ele>92</ele>
        <time>2013-10-05T12:42:07Z</time>
      </trkpt>
      <trkpt lat="44.79627" lon="-0.36969">
        <ele>92</ele>
        <time>2013-10-05T12:42:16Z</time>
      </trkpt>
      <trkpt lat="44.79648" lon="-0.36973">
        <ele>94</ele>
        <time>2013-10-05T12:42:23Z</time>
      </trkpt>
      <trkpt lat="44.79673" lon="-0.36968">
        <ele>95</ele>
        <time>2013-10-05T12:42:30Z</time>
      </trkpt>
      <trkpt lat="44.7969" lon="-0.36969">
        <ele>96</ele>
        <time>2013-10-05T12:42:37Z</time>
      </trkpt>
      <trkpt lat="44.79701" lon="-0.36982">
        <ele>98</ele>
        <time>2013-10-05T12:42:45Z</time>
      </trkpt>
      <trkpt lat="44.79703" lon="-0.3699">
        <ele>98</ele>
        <time>2013-10-05T12:42:54Z</time>
      </trkpt>
      <trkpt lat="44.79702" lon="-0.3699">
        <ele>98</ele>
        <time>2013-10-05T12:43:04Z</time>
      </trkpt>
      <trkpt lat="44.79702" lon="-0.3699">
        <ele>98</ele>
        <time>2013-10-05T12:43:17Z</time>
      </trkpt>
      <trkpt lat="44.79701" lon="-0.36991">
        <ele>98</ele>
        <time>2013-10-05T12:43:37Z</time>
      </trkpt>
      <trkpt lat="44.79702" lon="-0.36992">
        <ele>98</ele>
        <time>2013-10-05T12:43:45Z</time>
      </trkpt>
      <trkpt lat="44.79711" lon="-0.37005">
        <ele>99</ele>
        <time>2013-10-05T12:43:51Z</time>
      </trkpt>
      <trkpt lat="44.79729" lon="-0.37063">
        <ele>99</ele>
        <time>2013-10-05T12:44:00Z</time>
      </trkpt>
      <trkpt lat="44.79751" lon="-0.37124">
        <ele>97</ele>
        <time>2013-10-05T12:44:09Z</time>
      </trkpt>
      <trkpt lat="44.7976" lon="-0.37161">
        <ele>95</ele>
        <time>2013-10-05T12:44:16Z</time>
      </trkpt>
      <trkpt lat="44.79766" lon="-0.37168">
        <ele>94</ele>
        <time>2013-10-05T12:45:21Z</time>
      </trkpt>
      <trkpt lat="44.79788" lon="-0.37157">
        <ele>93</ele>
        <time>2013-10-05T12:45:28Z</time>
      </trkpt>
      <trkpt lat="44.7982" lon="-0.3713">
        <ele>91</ele>
        <time>2013-10-05T12:45:35Z</time>
      </trkpt>
      <trkpt lat="44.79851" lon="-0.37084">
        <ele>90</ele>
        <time>2013-10-05T12:45:44Z</time>
      </trkpt>
      <trkpt lat="44.7986" lon="-0.37066">
        <ele>90</ele>
        <time>2013-10-05T12:45:49Z</time>
      </trkpt>
      <trkpt lat="44.79874" lon="-0.37051">
        <ele>90</ele>
        <time>2013-10-05T12:45:56Z</time>
      </trkpt>
      <trkpt lat="44.79901" lon="-0.37025">
        <ele>90</ele>
        <time>2013-10-05T12:46:07Z</time>
      </trkpt>
      <trkpt lat="44.79906" lon="-0.37023">
        <ele>89</ele>
        <time>2013-10-05T12:46:13Z</time>
      </trkpt>
      <trkpt lat="44.79909" lon="-0.37018">
        <ele>89</ele>
        <time>2013-10-05T12:46:26Z</time>
      </trkpt>
      <trkpt lat="44.79919" lon="-0.37007">
        <ele>89</ele>
        <time>2013-10-05T12:46:35Z</time>
      </trkpt>
      <trkpt lat="44.79941" lon="-0.36986">
        <ele>89</ele>
        <time>2013-10-05T12:46:45Z</time>
      </trkpt>
      <trkpt lat="44.79966" lon="-0.36982">
        <ele>86</ele>
        <time>2013-10-05T12:46:56Z</time>
      </trkpt>
      <trkpt lat="44.79972" lon="-0.36983">
        <ele>86</ele>
        <time>2013-10-05T12:47:06Z</time>
      </trkpt>
      <trkpt lat="44.79975" lon="-0.36982">
        <ele>86</ele>
        <time>2013-10-05T12:47:16Z</time>
      </trkpt>
      <trkpt lat="44.80003" lon="-0.36987">
        <ele>83</ele>
        <time>2013-10-05T12:47:25Z</time>
      </trkpt>
      <trkpt lat="44.80028" lon="-0.36999">
        <ele>80</ele>
        <time>2013-10-05T12:47:33Z</time>
      </trkpt>
      <trkpt lat="44.80072" lon="-0.37">
        <ele>75</ele>
        <time>2013-10-05T12:47:42Z</time>
      </trkpt>
      <trkpt lat="44.80088" lon="-0.36999">
        <ele>74</ele>
        <time>2013-10-05T12:47:51Z</time>
      </trkpt>
      <trkpt lat="44.80089" lon="-0.37">
        <ele>74</ele>
        <time>2013-10-05T12:48:06Z</time>
      </trkpt>
      <trkpt lat="44.80092" lon="-0.37003">
        <ele>74</ele>
        <time>2013-10-05T12:48:17Z</time>
      </trkpt>
      <trkpt lat="44.80102" lon="-0.37005">
        <ele>73</ele>
        <time>2013-10-05T12:48:21Z</time>
      </trkpt>
      <trkpt lat="44.80135" lon="-0.37001">
        <ele>72</ele>
        <time>2013-10-05T12:48:31Z</time>
      </trkpt>
      <trkpt lat="44.80157" lon="-0.37004">
        <ele>72</ele>
        <time>2013-10-05T12:48:40Z</time>
      </trkpt>
      <trkpt lat="44.80183" lon="-0.37016">
        <ele>70</ele>
        <time>2013-10-05T12:48:46Z</time>
      </trkpt>
      <trkpt lat="44.8021" lon="-0.37031">
        <ele>69</ele>
        <time>2013-10-05T12:48:54Z</time>
      </trkpt>
      <trkpt lat="44.8024" lon="-0.37036">
        <ele>67</ele>
        <time>2013-10-05T12:49:04Z</time>
      </trkpt>
      <trkpt lat="44.80248" lon="-0.3704">
        <ele>66</ele>
        <time>2013-10-05T12:49:08Z</time>
      </trkpt>
      <trkpt lat="44.80269" lon="-0.37017">
        <ele>65</ele>
        <time>2013-10-05T12:49:17Z</time>
      </trkpt>
      <trkpt lat="44.80284" lon="-0.37019">
        <ele>64</ele>
        <time>2013-10-05T12:49:23Z</time>
      </trkpt>
      <trkpt lat="44.80302" lon="-0.37041">
        <ele>62</ele>
        <time>2013-10-05T12:49:30Z</time>
      </trkpt>
      <trkpt lat="44.80319" lon="-0.37048">
        <ele>60</ele>
        <time>2013-10-05T12:49:36Z</time>
      </trkpt>
      <trkpt lat="44.80346" lon="-0.37058">
        <ele>58</ele>
        <time>2013-10-05T12:49:49Z</time>
      </trkpt>
      <trkpt lat="44.80372" lon="-0.3705">
        <ele>56</ele>
        <time>2013-10-05T12:50:00Z</time>
      </trkpt>
      <trkpt lat="44.80392" lon="-0.37036">
        <ele>55</ele>
        <time>2013-10-05T12:50:12Z</time>
      </trkpt>
      <trkpt lat="44.804" lon="-0.37036">
        <ele>55</ele>
        <time>2013-10-05T12:50:19Z</time>
      </trkpt>
      <trkpt lat="44.80402" lon="-0.37037">
        <ele>55</ele>
        <time>2013-10-05T12:50:28Z</time>
      </trkpt>
      <trkpt lat="44.80401" lon="-0.37035">
        <ele>55</ele>
        <time>2013-10-05T12:50:40Z</time>
      </trkpt>
      <trkpt lat="44.804" lon="-0.37034">
        <ele>55</ele>
        <time>2013-10-05T12:50:55Z</time>
      </trkpt>
      <trkpt lat="44.80401" lon="-0.37034">
        <ele>55</ele>
        <time>2013-10-05T12:51:07Z</time>
      </trkpt>
      <trkpt lat="44.80401" lon="-0.37034">
        <ele>55</ele>
        <time>2013-10-05T12:51:26Z</time>
      </trkpt>
      <trkpt lat="44.80403" lon="-0.37036">
        <ele>54</ele>
        <time>2013-10-05T12:51:37Z</time>
      </trkpt>
      <trkpt lat="44.80409" lon="-0.3704">
        <ele>54</ele>
        <time>2013-10-05T12:51:47Z</time>
      </trkpt>
      <trkpt lat="44.80414" lon="-0.37042">
        <ele>54</ele>
        <time>2013-10-05T12:51:54Z</time>
      </trkpt>
      <trkpt lat="44.80436" lon="-0.37055">
        <ele>55</ele>
        <time>2013-10-05T12:52:03Z</time>
      </trkpt>
      <trkpt lat="44.80451" lon="-0.37074">
        <ele>57</ele>
        <time>2013-10-05T12:52:11Z</time>
      </trkpt>
      <trkpt lat="44.80459" lon="-0.37104">
        <ele>59</ele>
        <time>2013-10-05T12:52:20Z</time>
      </trkpt>
      <trkpt lat="44.80463" lon="-0.37126">
        <ele>61</ele>
        <time>2013-10-05T12:52:28Z</time>
      </trkpt>
      <trkpt lat="44.80468" lon="-0.37152">
        <ele>62</ele>
        <time>2013-10-05T12:52:37Z</time>
      </trkpt>
      <trkpt lat="44.80465" lon="-0.37173">
        <ele>62</ele>
        <time>2013-10-05T12:52:46Z</time>
      </trkpt>
      <trkpt lat="44.80467" lon="-0.37191">
        <ele>62</ele>
        <time>2013-10-05T12:52:56Z</time>
      </trkpt>
      <trkpt lat="44.80483" lon="-0.37203">
        <ele>63</ele>
        <time>2013-10-05T12:53:04Z</time>
      </trkpt>
      <trkpt lat="44.80496" lon="-0.372">
        <ele>64</ele>
        <time>2013-10-05T12:53:12Z</time>
      </trkpt>
      <trkpt lat="44.80503" lon="-0.372">
        <ele>65</ele>
        <time>2013-10-05T12:53:25Z</time>
      </trkpt>
      <trkpt lat="44.80505" lon="-0.37201">
        <ele>65</ele>
        <time>2013-10-05T12:53:27Z</time>
      </trkpt>
      <trkpt lat="44.80512" lon="-0.37202">
        <ele>65</ele>
        <time>2013-10-05T12:53:31Z</time>
      </trkpt>
      <trkpt lat="44.80535" lon="-0.3721">
        <ele>66</ele>
        <time>2013-10-05T12:53:40Z</time>
      </trkpt>
      <trkpt lat="44.80565" lon="-0.37222">
        <ele>66</ele>
        <time>2013-10-05T12:53:50Z</time>
      </trkpt>
      <trkpt lat="44.80568" lon="-0.37224">
        <ele>66</ele>
        <time>2013-10-05T12:53:52Z</time>
      </trkpt>
      <trkpt lat="44.80576" lon="-0.37218">
        <ele>65</ele>
        <time>2013-10-05T12:53:57Z</time>
      </trkpt>
      <trkpt lat="44.80593" lon="-0.37189">
        <ele>64</ele>
        <time>2013-10-05T12:54:05Z</time>
      </trkpt>
      <trkpt lat="44.80622" lon="-0.37141">
        <ele>62</ele>
        <time>2013-10-05T12:54:13Z</time>
      </trkpt>
      <trkpt lat="44.80663" lon="-0.37072">
        <ele>57</ele>
        <time>2013-10-05T12:54:23Z</time>
      </trkpt>
      <trkpt lat="44.80683" lon="-0.37047">
        <ele>54</ele>
        <time>2013-10-05T12:54:27Z</time>
      </trkpt>
      <trkpt lat="44.80689" lon="-0.37042">
        <ele>53</ele>
        <time>2013-10-05T12:54:28Z</time>
      </trkpt>
      <trkpt lat="44.80739" lon="-0.37016">
        <ele>50</ele>
        <time>2013-10-05T12:54:35Z</time>
      </trkpt>
      <trkpt lat="44.80816" lon="-0.36989">
        <ele>48</ele>
        <time>2013-10-05T12:54:46Z</time>
      </trkpt>
      <trkpt lat="44.80872" lon="-0.36978">
        <ele>47</ele>
        <time>2013-10-05T12:54:54Z</time>
      </trkpt>
      <trkpt lat="44.8092" lon="-0.36971">
        <ele>46</ele>
        <time>2013-10-05T12:55:02Z</time>
      </trkpt>
      <trkpt lat="44.80981" lon="-0.36956">
        <ele>48</ele>
        <time>2013-10-05T12:55:13Z</time>
      </trkpt>
      <trkpt lat="44.81042" lon="-0.36937">
        <ele>47</ele>
        <time>2013-10-05T12:55:24Z</time>
      </trkpt>
      <trkpt lat="44.81058" lon="-0.36922">
        <ele>46</ele>
        <time>2013-10-05T12:55:29Z</time>
      </trkpt>
      <trkpt lat="44.81059" lon="-0.36917">
        <ele>46</ele>
        <time>2013-10-05T12:55:30Z</time>
      </trkpt>
      <trkpt lat="44.8106" lon="-0.36911">
        <ele>46</ele>
        <time>2013-10-05T12:55:31Z</time>
      </trkpt>
      <trkpt lat="44.81059" lon="-0.36906">
        <ele>46</ele>
        <time>2013-10-05T12:55:32Z</time>
      </trkpt>
      <trkpt lat="44.81059" lon="-0.36901">
        <ele>46</ele>
        <time>2013-10-05T12:55:33Z</time>
      </trkpt>
      <trkpt lat="44.81054" lon="-0.36864">
        <ele>44</ele>
        <time>2013-10-05T12:55:41Z</time>
      </trkpt>
      <trkpt lat="44.81049" lon="-0.36827">
        <ele>44</ele>
        <time>2013-10-05T12:55:47Z</time>
      </trkpt>
      <trkpt lat="44.81049" lon="-0.36805">
        <ele>44</ele>
        <time>2013-10-05T12:55:50Z</time>
      </trkpt>
      <trkpt lat="44.81049" lon="-0.36798">
        <ele>44</ele>
        <time>2013-10-05T12:55:51Z</time>
      </trkpt>
      <trkpt lat="44.8105" lon="-0.36791">
        <ele>44</ele>
        <time>2013-10-05T12:55:52Z</time>
      </trkpt>
      <trkpt lat="44.81066" lon="-0.36733">
        <ele>45</ele>
        <time>2013-10-05T12:56:01Z</time>
      </trkpt>
      <trkpt lat="44.81079" lon="-0.36682">
        <ele>45</ele>
        <time>2013-10-05T12:56:10Z</time>
      </trkpt>
      <trkpt lat="44.81086" lon="-0.36658">
        <ele>45</ele>
        <time>2013-10-05T12:56:17Z</time>
      </trkpt>
      <trkpt lat="44.81088" lon="-0.36647">
        <ele>46</ele>
        <time>2013-10-05T12:56:24Z</time>
      </trkpt>
      <trkpt lat="44.81084" lon="-0.36643">
        <ele>46</ele>
        <time>2013-10-05T12:56:32Z</time>
      </trkpt>
      <trkpt lat="44.81082" lon="-0.36642">
        <ele>46</ele>
        <time>2013-10-05T12:56:39Z</time>
      </trkpt>
      <trkpt lat="44.81081" lon="-0.36641">
        <ele>47</ele>
        <time>2013-10-05T12:56:51Z</time>
      </trkpt>
      <trkpt lat="44.81078" lon="-0.36638">
        <ele>47</ele>
        <time>2013-10-05T12:56:57Z</time>
      </trkpt>
      <trkpt lat="44.81065" lon="-0.36624">
        <ele>49</ele>
        <time>2013-10-05T12:57:07Z</time>
      </trkpt>
      <trkpt lat="44.81047" lon="-0.36608">
        <ele>52</ele>
        <time>2013-10-05T12:57:17Z</time>
      </trkpt>
      <trkpt lat="44.81039" lon="-0.36599">
        <ele>53</ele>
        <time>2013-10-05T12:57:24Z</time>
      </trkpt>
      <trkpt lat="44.81024" lon="-0.36582">
        <ele>56</ele>
        <time>2013-10-05T12:57:34Z</time>
      </trkpt>
      <trkpt lat="44.81013" lon="-0.36562">
        <ele>57</ele>
        <time>2013-10-05T12:57:46Z</time>
      </trkpt>
      <trkpt lat="44.81007" lon="-0.3655">
        <ele>58</ele>
        <time>2013-10-05T12:57:54Z</time>
      </trkpt>
      <trkpt lat="44.80998" lon="-0.36537">
        <ele>59</ele>
        <time>2013-10-05T12:58:04Z</time>
      </trkpt>
      <trkpt lat="44.80992" lon="-0.36523">
        <ele>60</ele>
        <time>2013-10-05T12:58:14Z</time>
      </trkpt>
      <trkpt lat="44.80981" lon="-0.36509">
        <ele>62</ele>
        <time>2013-10-05T12:58:24Z</time>
      </trkpt>
      <trkpt lat="44.80972" lon="-0.36488">
        <ele>64</ele>
        <time>2013-10-05T12:58:36Z</time>
      </trkpt>
      <trkpt lat="44.80968" lon="-0.36479">
        <ele>65</ele>
        <time>2013-10-05T12:58:41Z</time>
      </trkpt>
      <trkpt lat="44.80962" lon="-0.3646">
        <ele>66</ele>
        <time>2013-10-05T12:58:52Z</time>
      </trkpt>
      <trkpt lat="44.80959" lon="-0.36442">
        <ele>67</ele>
        <time>2013-10-05T12:59:04Z</time>
      </trkpt>
      <trkpt lat="44.80956" lon="-0.36423">
        <ele>69</ele>
        <time>2013-10-05T12:59:15Z</time>
      </trkpt>
      <trkpt lat="44.80954" lon="-0.36407">
        <ele>70</ele>
        <time>2013-10-05T12:59:24Z</time>
      </trkpt>
      <trkpt lat="44.80952" lon="-0.36391">
        <ele>71</ele>
        <time>2013-10-05T12:59:34Z</time>
      </trkpt>
      <trkpt lat="44.80946" lon="-0.36376">
        <ele>73</ele>
        <time>2013-10-05T12:59:43Z</time>
      </trkpt>
      <trkpt lat="44.80939" lon="-0.36365">
        <ele>75</ele>
        <time>2013-10-05T12:59:52Z</time>
      </trkpt>
      <trkpt lat="44.80932" lon="-0.3635">
        <ele>77</ele>
        <time>2013-10-05T13:00:01Z</time>
      </trkpt>
      <trkpt lat="44.80928" lon="-0.3634">
        <ele>78</ele>
        <time>2013-10-05T13:00:10Z</time>
      </trkpt>
      <trkpt lat="44.8092" lon="-0.36326">
        <ele>80</ele>
        <time>2013-10-05T13:00:20Z</time>
      </trkpt>
      <trkpt lat="44.80915" lon="-0.36313">
        <ele>81</ele>
        <time>2013-10-05T13:00:29Z</time>
      </trkpt>
      <trkpt lat="44.80909" lon="-0.36299">
        <ele>83</ele>
        <time>2013-10-05T13:00:41Z</time>
      </trkpt>
      <trkpt lat="44.80905" lon="-0.36284">
        <ele>85</ele>
        <time>2013-10-05T13:00:51Z</time>
      </trkpt>
      <trkpt lat="44.80902" lon="-0.3628">
        <ele>85</ele>
        <time>2013-10-05T13:00:59Z</time>
      </trkpt>
      <trkpt lat="44.80903" lon="-0.3628">
        <ele>85</ele>
        <time>2013-10-05T13:01:13Z</time>
      </trkpt>
      <trkpt lat="44.80905" lon="-0.3628">
        <ele>85</ele>
        <time>2013-10-05T13:01:23Z</time>
      </trkpt>
      <trkpt lat="44.80904" lon="-0.3628">
        <ele>85</ele>
        <time>2013-10-05T13:01:36Z</time>
      </trkpt>
      <trkpt lat="44.80904" lon="-0.3628">
        <ele>85</ele>
        <time>2013-10-05T13:01:48Z</time>
      </trkpt>
      <trkpt lat="44.80904" lon="-0.3628">
        <ele>85</ele>
        <time>2013-10-05T13:02:01Z</time>
      </trkpt>
      <trkpt lat="44.80905" lon="-0.3628">
        <ele>85</ele>
        <time>2013-10-05T13:02:15Z</time>
      </trkpt>
      <trkpt lat="44.80905" lon="-0.36281">
        <ele>85</ele>
        <time>2013-10-05T13:02:29Z</time>
      </trkpt>
      <trkpt lat="44.80904" lon="-0.36281">
        <ele>85</ele>
        <time>2013-10-05T13:02:46Z</time>
      </trkpt>
      <trkpt lat="44.80904" lon="-0.36281">
        <ele>85</ele>
        <time>2013-10-05T13:03:03Z</time>
      </trkpt>
      <trkpt lat="44.80901" lon="-0.36278">
        <ele>86</ele>
        <time>2013-10-05T13:03:18Z</time>
      </trkpt>
      <trkpt lat="44.80891" lon="-0.36272">
        <ele>87</ele>
        <time>2013-10-05T13:03:27Z</time>
      </trkpt>
      <trkpt lat="44.80885" lon="-0.36267">
        <ele>87</ele>
        <time>2013-10-05T13:03:34Z</time>
      </trkpt>
      <trkpt lat="44.80883" lon="-0.36265">
        <ele>87</ele>
        <time>2013-10-05T13:03:35Z</time>
      </trkpt>
      <trkpt lat="44.80882" lon="-0.36264">
        <ele>87</ele>
        <time>2013-10-05T13:03:36Z</time>
      </trkpt>
      <trkpt lat="44.80881" lon="-0.36263">
        <ele>87</ele>
        <time>2013-10-05T13:03:37Z</time>
      </trkpt>
      <trkpt lat="44.8088" lon="-0.36262">
        <ele>87</ele>
        <time>2013-10-05T13:03:38Z</time>
      </trkpt>
      <trkpt lat="44.80879" lon="-0.36261">
        <ele>87</ele>
        <time>2013-10-05T13:03:39Z</time>
      </trkpt>
      <trkpt lat="44.80877" lon="-0.3626">
        <ele>87</ele>
        <time>2013-10-05T13:03:40Z</time>
      </trkpt>
      <trkpt lat="44.80876" lon="-0.36259">
        <ele>87</ele>
        <time>2013-10-05T13:03:41Z</time>
      </trkpt>
      <trkpt lat="44.80875" lon="-0.36258">
        <ele>87</ele>
        <time>2013-10-05T13:03:42Z</time>
      </trkpt>
      <trkpt lat="44.80874" lon="-0.36256">
        <ele>87</ele>
        <time>2013-10-05T13:03:43Z</time>
      </trkpt>
      <trkpt lat="44.80873" lon="-0.36254">
        <ele>87</ele>
        <time>2013-10-05T13:03:44Z</time>
      </trkpt>
      <trkpt lat="44.80858" lon="-0.36239">
        <ele>88</ele>
        <time>2013-10-05T13:03:57Z</time>
      </trkpt>
      <trkpt lat="44.80858" lon="-0.36237">
        <ele>88</ele>
        <time>2013-10-05T13:03:58Z</time>
      </trkpt>
      <trkpt lat="44.80858" lon="-0.36234">
        <ele>88</ele>
        <time>2013-10-05T13:03:59Z</time>
      </trkpt>
      <trkpt lat="44.80858" lon="-0.36232">
        <ele>88</ele>
        <time>2013-10-05T13:04:00Z</time>
      </trkpt>
      <trkpt lat="44.80859" lon="-0.3623">
        <ele>88</ele>
        <time>2013-10-05T13:04:01Z</time>
      </trkpt>
      <trkpt lat="44.8086" lon="-0.36228">
        <ele>89</ele>
        <time>2013-10-05T13:04:02Z</time>
      </trkpt>
      <trkpt lat="44.80861" lon="-0.36226">
        <ele>89</ele>
        <time>2013-10-05T13:04:03Z</time>
      </trkpt>
      <trkpt lat="44.8087" lon="-0.36205">
        <ele>88</ele>
        <time>2013-10-05T13:04:14Z</time>
      </trkpt>
      <trkpt lat="44.80876" lon="-0.36177">
        <ele>88</ele>
        <time>2013-10-05T13:04:24Z</time>
      </trkpt>
      <trkpt lat="44.80879" lon="-0.36148">
        <ele>87</ele>
        <time>2013-10-05T13:04:34Z</time>
      </trkpt>
      <trkpt lat="44.80881" lon="-0.36141">
        <ele>87</ele>
        <time>2013-10-05T13:04:40Z</time>
      </trkpt>
      <trkpt lat="44.80882" lon="-0.36142">
        <ele>87</ele>
        <time>2013-10-05T13:04:41Z</time>
      </trkpt>
      <trkpt lat="44.80883" lon="-0.36144">
        <ele>86</ele>
        <time>2013-10-05T13:04:42Z</time>
      </trkpt>
      <trkpt lat="44.80883" lon="-0.36146">
        <ele>86</ele>
        <time>2013-10-05T13:04:43Z</time>
      </trkpt>
      <trkpt lat="44.80883" lon="-0.36148">
        <ele>87</ele>
        <time>2013-10-05T13:04:44Z</time>
      </trkpt>
      <trkpt lat="44.80883" lon="-0.36151">
        <ele>87</ele>
        <time>2013-10-05T13:04:45Z</time>
      </trkpt>
      <trkpt lat="44.80882" lon="-0.36153">
        <ele>87</ele>
        <time>2013-10-05T13:04:46Z</time>
      </trkpt>
      <trkpt lat="44.80881" lon="-0.36154">
        <ele>87</ele>
        <time>2013-10-05T13:04:47Z</time>
      </trkpt>
      <trkpt lat="44.80875" lon="-0.36174">
        <ele>88</ele>
        <time>2013-10-05T13:04:55Z</time>
      </trkpt>
      <trkpt lat="44.80871" lon="-0.36194">
        <ele>88</ele>
        <time>2013-10-05T13:05:03Z</time>
      </trkpt>
      <trkpt lat="44.80864" lon="-0.36219">
        <ele>89</ele>
        <time>2013-10-05T13:05:13Z</time>
      </trkpt>
      <trkpt lat="44.80865" lon="-0.36212">
        <ele>89</ele>
        <time>2013-10-05T13:05:18Z</time>
      </trkpt>
      <trkpt lat="44.80866" lon="-0.3621">
        <ele>89</ele>
        <time>2013-10-05T13:05:19Z</time>
      </trkpt>
      <trkpt lat="44.80873" lon="-0.36185">
        <ele>88</ele>
        <time>2013-10-05T13:05:29Z</time>
      </trkpt>
      <trkpt lat="44.80879" lon="-0.36141">
        <ele>87</ele>
        <time>2013-10-05T13:05:39Z</time>
      </trkpt>
      <trkpt lat="44.80887" lon="-0.36096">
        <ele>85</ele>
        <time>2013-10-05T13:05:47Z</time>
      </trkpt>
      <trkpt lat="44.80894" lon="-0.36039">
        <ele>85</ele>
        <time>2013-10-05T13:05:56Z</time>
      </trkpt>
      <trkpt lat="44.80901" lon="-0.36001">
        <ele>87</ele>
        <time>2013-10-05T13:06:05Z</time>
      </trkpt>
      <trkpt lat="44.80915" lon="-0.35973">
        <ele>87</ele>
        <time>2013-10-05T13:06:12Z</time>
      </trkpt>
      <trkpt lat="44.80943" lon="-0.35936">
        <ele>83</ele>
        <time>2013-10-05T13:06:21Z</time>
      </trkpt>
      <trkpt lat="44.80949" lon="-0.35925">
        <ele>82</ele>
        <time>2013-10-05T13:06:27Z</time>
      </trkpt>
      <trkpt lat="44.8095" lon="-0.35924">
        <ele>82</ele>
        <time>2013-10-05T13:06:28Z</time>
      </trkpt>
      <trkpt lat="44.80952" lon="-0.35924">
        <ele>82</ele>
        <time>2013-10-05T13:06:29Z</time>
      </trkpt>
      <trkpt lat="44.80954" lon="-0.35925">
        <ele>82</ele>
        <time>2013-10-05T13:06:30Z</time>
      </trkpt>
      <trkpt lat="44.80956" lon="-0.35926">
        <ele>82</ele>
        <time>2013-10-05T13:06:31Z</time>
      </trkpt>
      <trkpt lat="44.80974" lon="-0.3594">
        <ele>79</ele>
        <time>2013-10-05T13:06:38Z</time>
      </trkpt>
      <trkpt lat="44.81" lon="-0.35959">
        <ele>77</ele>
        <time>2013-10-05T13:06:44Z</time>
      </trkpt>
      <trkpt lat="44.81045" lon="-0.35989">
        <ele>73</ele>
        <time>2013-10-05T13:06:51Z</time>
      </trkpt>
      <trkpt lat="44.81093" lon="-0.36005">
        <ele>69</ele>
        <time>2013-10-05T13:06:57Z</time>
      </trkpt>
      <trkpt lat="44.81102" lon="-0.36009">
        <ele>68</ele>
        <time>2013-10-05T13:06:58Z</time>
      </trkpt>
      <trkpt lat="44.8111" lon="-0.36014">
        <ele>68</ele>
        <time>2013-10-05T13:06:59Z</time>
      </trkpt>
      <trkpt lat="44.81117" lon="-0.3602">
        <ele>67</ele>
        <time>2013-10-05T13:07:00Z</time>
      </trkpt>
      <trkpt lat="44.81124" lon="-0.36027">
        <ele>66</ele>
        <time>2013-10-05T13:07:01Z</time>
      </trkpt>
      <trkpt lat="44.81131" lon="-0.36035">
        <ele>66</ele>
        <time>2013-10-05T13:07:02Z</time>
      </trkpt>
      <trkpt lat="44.81173" lon="-0.36084">
        <ele>61</ele>
        <time>2013-10-05T13:07:09Z</time>
      </trkpt>
      <trkpt lat="44.81193" lon="-0.36093">
        <ele>59</ele>
        <time>2013-10-05T13:07:14Z</time>
      </trkpt>
      <trkpt lat="44.81197" lon="-0.3609">
        <ele>59</ele>
        <time>2013-10-05T13:07:15Z</time>
      </trkpt>
      <trkpt lat="44.81199" lon="-0.36086">
        <ele>59</ele>
        <time>2013-10-05T13:07:16Z</time>
      </trkpt>
      <trkpt lat="44.81201" lon="-0.36082">
        <ele>59</ele>
        <time>2013-10-05T13:07:17Z</time>
      </trkpt>
      <trkpt lat="44.81202" lon="-0.36077">
        <ele>59</ele>
        <time>2013-10-05T13:07:18Z</time>
      </trkpt>
      <trkpt lat="44.81202" lon="-0.36071">
        <ele>59</ele>
        <time>2013-10-05T13:07:19Z</time>
      </trkpt>
      <trkpt lat="44.81203" lon="-0.36065">
        <ele>59</ele>
        <time>2013-10-05T13:07:20Z</time>
      </trkpt>
      <trkpt lat="44.81208" lon="-0.36031">
        <ele>59</ele>
        <time>2013-10-05T13:07:25Z</time>
      </trkpt>
      <trkpt lat="44.8121" lon="-0.36025">
        <ele>59</ele>
        <time>2013-10-05T13:07:26Z</time>
      </trkpt>
      <trkpt lat="44.81212" lon="-0.36019">
        <ele>59</ele>
        <time>2013-10-05T13:07:27Z</time>
      </trkpt>
      <trkpt lat="44.81216" lon="-0.36015">
        <ele>58</ele>
        <time>2013-10-05T13:07:28Z</time>
      </trkpt>
      <trkpt lat="44.8122" lon="-0.36013">
        <ele>58</ele>
        <time>2013-10-05T13:07:29Z</time>
      </trkpt>
      <trkpt lat="44.81225" lon="-0.36012">
        <ele>58</ele>
        <time>2013-10-05T13:07:30Z</time>
      </trkpt>
      <trkpt lat="44.8123" lon="-0.36013">
        <ele>57</ele>
        <time>2013-10-05T13:07:31Z</time>
      </trkpt>
      <trkpt lat="44.81235" lon="-0.36014">
        <ele>57</ele>
        <time>2013-10-05T13:07:32Z</time>
      </trkpt>
      <trkpt lat="44.81284" lon="-0.3603">
        <ele>54</ele>
        <time>2013-10-05T13:07:42Z</time>
      </trkpt>
      <trkpt lat="44.81329" lon="-0.36051">
        <ele>52</ele>
        <time>2013-10-05T13:07:50Z</time>
      </trkpt>
      <trkpt lat="44.81341" lon="-0.36061">
        <ele>51</ele>
        <time>2013-10-05T13:07:52Z</time>
      </trkpt>
      <trkpt lat="44.81347" lon="-0.36067">
        <ele>50</ele>
        <time>2013-10-05T13:07:53Z</time>
      </trkpt>
      <trkpt lat="44.81387" lon="-0.36115">
        <ele>46</ele>
        <time>2013-10-05T13:07:59Z</time>
      </trkpt>
      <trkpt lat="44.81402" lon="-0.36128">
        <ele>45</ele>
        <time>2013-10-05T13:08:01Z</time>
      </trkpt>
      <trkpt lat="44.8141" lon="-0.36133">
        <ele>44</ele>
        <time>2013-10-05T13:08:02Z</time>
      </trkpt>
      <trkpt lat="44.81474" lon="-0.36162">
        <ele>41</ele>
        <time>2013-10-05T13:08:09Z</time>
      </trkpt>
      <trkpt lat="44.81526" lon="-0.36172">
        <ele>42</ele>
        <time>2013-10-05T13:08:16Z</time>
      </trkpt>
      <trkpt lat="44.81556" lon="-0.36183">
        <ele>44</ele>
        <time>2013-10-05T13:08:21Z</time>
      </trkpt>
      <trkpt lat="44.81561" lon="-0.36187">
        <ele>44</ele>
        <time>2013-10-05T13:08:22Z</time>
      </trkpt>
      <trkpt lat="44.81598" lon="-0.36222">
        <ele>47</ele>
        <time>2013-10-05T13:08:31Z</time>
      </trkpt>
      <trkpt lat="44.81615" lon="-0.36234">
        <ele>48</ele>
        <time>2013-10-05T13:08:38Z</time>
      </trkpt>
      <trkpt lat="44.8163" lon="-0.36227">
        <ele>49</ele>
        <time>2013-10-05T13:08:43Z</time>
      </trkpt>
      <trkpt lat="44.81654" lon="-0.36204">
        <ele>50</ele>
        <time>2013-10-05T13:08:52Z</time>
      </trkpt>
      <trkpt lat="44.81675" lon="-0.36184">
        <ele>52</ele>
        <time>2013-10-05T13:09:01Z</time>
      </trkpt>
      <trkpt lat="44.81691" lon="-0.36166">
        <ele>53</ele>
        <time>2013-10-05T13:09:09Z</time>
      </trkpt>
      <trkpt lat="44.81706" lon="-0.36152">
        <ele>54</ele>
        <time>2013-10-05T13:09:18Z</time>
      </trkpt>
      <trkpt lat="44.81721" lon="-0.36145">
        <ele>55</ele>
        <time>2013-10-05T13:09:26Z</time>
      </trkpt>
      <trkpt lat="44.81738" lon="-0.36135">
        <ele>56</ele>
        <time>2013-10-05T13:09:36Z</time>
      </trkpt>
      <trkpt lat="44.81756" lon="-0.36132">
        <ele>58</ele>
        <time>2013-10-05T13:09:48Z</time>
      </trkpt>
      <trkpt lat="44.8177" lon="-0.36137">
        <ele>59</ele>
        <time>2013-10-05T13:09:56Z</time>
      </trkpt>
      <trkpt lat="44.81784" lon="-0.36147">
        <ele>60</ele>
        <time>2013-10-05T13:10:05Z</time>
      </trkpt>
      <trkpt lat="44.818" lon="-0.36163">
        <ele>61</ele>
        <time>2013-10-05T13:10:16Z</time>
      </trkpt>
      <trkpt lat="44.81817" lon="-0.36171">
        <ele>62</ele>
        <time>2013-10-05T13:10:25Z</time>
      </trkpt>
      <trkpt lat="44.81834" lon="-0.36172">
        <ele>63</ele>
        <time>2013-10-05T13:10:32Z</time>
      </trkpt>
      <trkpt lat="44.81858" lon="-0.36172">
        <ele>63</ele>
        <time>2013-10-05T13:10:40Z</time>
      </trkpt>
      <trkpt lat="44.8186" lon="-0.36175">
        <ele>63</ele>
        <time>2013-10-05T13:10:41Z</time>
      </trkpt>
      <trkpt lat="44.81862" lon="-0.36179">
        <ele>63</ele>
        <time>2013-10-05T13:10:42Z</time>
      </trkpt>
      <trkpt lat="44.81863" lon="-0.36184">
        <ele>63</ele>
        <time>2013-10-05T13:10:43Z</time>
      </trkpt>
      <trkpt lat="44.8187" lon="-0.36225">
        <ele>64</ele>
        <time>2013-10-05T13:10:53Z</time>
      </trkpt>
      <trkpt lat="44.81875" lon="-0.36274">
        <ele>64</ele>
        <time>2013-10-05T13:11:04Z</time>
      </trkpt>
      <trkpt lat="44.81873" lon="-0.36318">
        <ele>65</ele>
        <time>2013-10-05T13:11:15Z</time>
      </trkpt>
      <trkpt lat="44.81875" lon="-0.36353">
        <ele>65</ele>
        <time>2013-10-05T13:11:24Z</time>
      </trkpt>
      <trkpt lat="44.81877" lon="-0.3639">
        <ele>66</ele>
        <time>2013-10-05T13:11:33Z</time>
      </trkpt>
      <trkpt lat="44.81886" lon="-0.36433">
        <ele>66</ele>
        <time>2013-10-05T13:11:45Z</time>
      </trkpt>
      <trkpt lat="44.81894" lon="-0.36458">
        <ele>66</ele>
        <time>2013-10-05T13:11:53Z</time>
      </trkpt>
      <trkpt lat="44.81903" lon="-0.36489">
        <ele>67</ele>
        <time>2013-10-05T13:12:03Z</time>
      </trkpt>
      <trkpt lat="44.8191" lon="-0.36522">
        <ele>69</ele>
        <time>2013-10-05T13:12:13Z</time>
      </trkpt>
      <trkpt lat="44.81915" lon="-0.36555">
        <ele>69</ele>
        <time>2013-10-05T13:12:22Z</time>
      </trkpt>
      <trkpt lat="44.81916" lon="-0.36597">
        <ele>70</ele>
        <time>2013-10-05T13:12:34Z</time>
      </trkpt>
      <trkpt lat="44.81916" lon="-0.36638">
        <ele>71</ele>
        <time>2013-10-05T13:12:46Z</time>
      </trkpt>
      <trkpt lat="44.81916" lon="-0.36662">
        <ele>72</ele>
        <time>2013-10-05T13:12:55Z</time>
      </trkpt>
      <trkpt lat="44.81914" lon="-0.36681">
        <ele>72</ele>
        <time>2013-10-05T13:13:04Z</time>
      </trkpt>
      <trkpt lat="44.81914" lon="-0.36706">
        <ele>73</ele>
        <time>2013-10-05T13:13:13Z</time>
      </trkpt>
      <trkpt lat="44.81914" lon="-0.36738">
        <ele>75</ele>
        <time>2013-10-05T13:13:25Z</time>
      </trkpt>
      <trkpt lat="44.81913" lon="-0.36764">
        <ele>77</ele>
        <time>2013-10-05T13:13:36Z</time>
      </trkpt>
      <trkpt lat="44.81911" lon="-0.36787">
        <ele>78</ele>
        <time>2013-10-05T13:13:45Z</time>
      </trkpt>
      <trkpt lat="44.81908" lon="-0.36807">
        <ele>79</ele>
        <time>2013-10-05T13:13:54Z</time>
      </trkpt>
      <trkpt lat="44.81903" lon="-0.36831">
        <ele>80</ele>
        <time>2013-10-05T13:14:04Z</time>
      </trkpt>
      <trkpt lat="44.81898" lon="-0.3685">
        <ele>82</ele>
        <time>2013-10-05T13:14:11Z</time>
      </trkpt>
      <trkpt lat="44.81894" lon="-0.36867">
        <ele>83</ele>
        <time>2013-10-05T13:14:19Z</time>
      </trkpt>
      <trkpt lat="44.81889" lon="-0.36887">
        <ele>85</ele>
        <time>2013-10-05T13:14:28Z</time>
      </trkpt>
      <trkpt lat="44.81884" lon="-0.36909">
        <ele>87</ele>
        <time>2013-10-05T13:14:35Z</time>
      </trkpt>
      <trkpt lat="44.81878" lon="-0.36935">
        <ele>89</ele>
        <time>2013-10-05T13:14:43Z</time>
      </trkpt>
      <trkpt lat="44.81871" lon="-0.3696">
        <ele>91</ele>
        <time>2013-10-05T13:14:53Z</time>
      </trkpt>
      <trkpt lat="44.81866" lon="-0.36983">
        <ele>92</ele>
        <time>2013-10-05T13:15:03Z</time>
      </trkpt>
      <trkpt lat="44.81858" lon="-0.37014">
        <ele>94</ele>
        <time>2013-10-05T13:15:15Z</time>
      </trkpt>
      <trkpt lat="44.81853" lon="-0.37032">
        <ele>94</ele>
        <time>2013-10-05T13:15:23Z</time>
      </trkpt>
      <trkpt lat="44.8185" lon="-0.37047">
        <ele>95</ele>
        <time>2013-10-05T13:15:31Z</time>
      </trkpt>
      <trkpt lat="44.81843" lon="-0.37071">
        <ele>95</ele>
        <time>2013-10-05T13:15:42Z</time>
      </trkpt>
      <trkpt lat="44.81838" lon="-0.3709">
        <ele>96</ele>
        <time>2013-10-05T13:15:50Z</time>
      </trkpt>
      <trkpt lat="44.81833" lon="-0.37117">
        <ele>96</ele>
        <time>2013-10-05T13:16:01Z</time>
      </trkpt>
      <trkpt lat="44.81833" lon="-0.37119">
        <ele>96</ele>
        <time>2013-10-05T13:16:02Z</time>
      </trkpt>
      <trkpt lat="44.81835" lon="-0.37121">
        <ele>96</ele>
        <time>2013-10-05T13:16:03Z</time>
      </trkpt>
      <trkpt lat="44.81836" lon="-0.37122">
        <ele>96</ele>
        <time>2013-10-05T13:16:04Z</time>
      </trkpt>
      <trkpt lat="44.81839" lon="-0.37123">
        <ele>96</ele>
        <time>2013-10-05T13:16:05Z</time>
      </trkpt>
      <trkpt lat="44.81841" lon="-0.37122">
        <ele>96</ele>
        <time>2013-10-05T13:16:06Z</time>
      </trkpt>
      <trkpt lat="44.81843" lon="-0.37122">
        <ele>96</ele>
        <time>2013-10-05T13:16:07Z</time>
      </trkpt>
      <trkpt lat="44.81845" lon="-0.37121">
        <ele>96</ele>
        <time>2013-10-05T13:16:08Z</time>
      </trkpt>
      <trkpt lat="44.81848" lon="-0.3712">
        <ele>96</ele>
        <time>2013-10-05T13:16:09Z</time>
      </trkpt>
      <trkpt lat="44.8185" lon="-0.3712">
        <ele>96</ele>
        <time>2013-10-05T13:16:10Z</time>
      </trkpt>
      <trkpt lat="44.81853" lon="-0.37119">
        <ele>96</ele>
        <time>2013-10-05T13:16:11Z</time>
      </trkpt>
      <trkpt lat="44.81881" lon="-0.3711">
        <ele>94</ele>
        <time>2013-10-05T13:16:21Z</time>
      </trkpt>
      <trkpt lat="44.8191" lon="-0.37104">
        <ele>93</ele>
        <time>2013-10-05T13:16:30Z</time>
      </trkpt>
      <trkpt lat="44.8195" lon="-0.37094">
        <ele>91</ele>
        <time>2013-10-05T13:16:41Z</time>
      </trkpt>
      <trkpt lat="44.81978" lon="-0.37087">
        <ele>91</ele>
        <time>2013-10-05T13:16:49Z</time>
      </trkpt>
      <trkpt lat="44.82005" lon="-0.37071">
        <ele>89</ele>
        <time>2013-10-05T13:16:58Z</time>
      </trkpt>
      <trkpt lat="44.82022" lon="-0.37063">
        <ele>89</ele>
        <time>2013-10-05T13:17:04Z</time>
      </trkpt>
      <trkpt lat="44.82053" lon="-0.37064">
        <ele>88</ele>
        <time>2013-10-05T13:17:13Z</time>
      </trkpt>
      <trkpt lat="44.82072" lon="-0.3707">
        <ele>87</ele>
        <time>2013-10-05T13:17:19Z</time>
      </trkpt>
      <trkpt lat="44.82073" lon="-0.37073">
        <ele>86</ele>
        <time>2013-10-05T13:17:20Z</time>
      </trkpt>
      <trkpt lat="44.82074" lon="-0.37077">
        <ele>86</ele>
        <time>2013-10-05T13:17:21Z</time>
      </trkpt>
      <trkpt lat="44.82074" lon="-0.37082">
        <ele>86</ele>
        <time>2013-10-05T13:17:22Z</time>
      </trkpt>
      <trkpt lat="44.82074" lon="-0.37086">
        <ele>86</ele>
        <time>2013-10-05T13:17:23Z</time>
      </trkpt>
      <trkpt lat="44.82075" lon="-0.37091">
        <ele>86</ele>
        <time>2013-10-05T13:17:28Z</time>
      </trkpt>
      <trkpt lat="44.82077" lon="-0.37101">
        <ele>84</ele>
        <time>2013-10-05T13:17:33Z</time>
      </trkpt>
      <trkpt lat="44.82085" lon="-0.37117">
        <ele>82</ele>
        <time>2013-10-05T13:17:42Z</time>
      </trkpt>
      <trkpt lat="44.82087" lon="-0.37118">
        <ele>81</ele>
        <time>2013-10-05T13:17:44Z</time>
      </trkpt>
      <trkpt lat="44.82113" lon="-0.3713">
        <ele>77</ele>
        <time>2013-10-05T13:17:52Z</time>
      </trkpt>
      <trkpt lat="44.82152" lon="-0.37128">
        <ele>74</ele>
        <time>2013-10-05T13:18:00Z</time>
      </trkpt>
      <trkpt lat="44.82159" lon="-0.37126">
        <ele>74</ele>
        <time>2013-10-05T13:18:09Z</time>
      </trkpt>
      <trkpt lat="44.82167" lon="-0.37125">
        <ele>73</ele>
        <time>2013-10-05T13:18:19Z</time>
      </trkpt>
      <trkpt lat="44.82197" lon="-0.37125">
        <ele>70</ele>
        <time>2013-10-05T13:18:28Z</time>
      </trkpt>
      <trkpt lat="44.82231" lon="-0.37133">
        <ele>65</ele>
        <time>2013-10-05T13:18:39Z</time>
      </trkpt>
      <trkpt lat="44.82266" lon="-0.37132">
        <ele>60</ele>
        <time>2013-10-05T13:18:51Z</time>
      </trkpt>
      <trkpt lat="44.82288" lon="-0.3713">
        <ele>58</ele>
        <time>2013-10-05T13:18:59Z</time>
      </trkpt>
      <trkpt lat="44.82332" lon="-0.37128">
        <ele>56</ele>
        <time>2013-10-05T13:19:11Z</time>
      </trkpt>
      <trkpt lat="44.82367" lon="-0.37139">
        <ele>54</ele>
        <time>2013-10-05T13:19:20Z</time>
      </trkpt>
      <trkpt lat="44.82389" lon="-0.37142">
        <ele>54</ele>
        <time>2013-10-05T13:19:27Z</time>
      </trkpt>
      <trkpt lat="44.82426" lon="-0.37123">
        <ele>52</ele>
        <time>2013-10-05T13:19:35Z</time>
      </trkpt>
      <trkpt lat="44.82474" lon="-0.37103">
        <ele>51</ele>
        <time>2013-10-05T13:19:46Z</time>
      </trkpt>
      <trkpt lat="44.82502" lon="-0.3709">
        <ele>51</ele>
        <time>2013-10-05T13:22:02Z</time>
      </trkpt>
      <trkpt lat="44.82525" lon="-0.37078">
        <ele>52</ele>
        <time>2013-10-05T13:22:14Z</time>
      </trkpt>
      <trkpt lat="44.82543" lon="-0.37058">
        <ele>53</ele>
        <time>2013-10-05T13:22:24Z</time>
      </trkpt>
      <trkpt lat="44.82554" lon="-0.37031">
        <ele>53</ele>
        <time>2013-10-05T13:22:35Z</time>
      </trkpt>
      <trkpt lat="44.82566" lon="-0.37009">
        <ele>54</ele>
        <time>2013-10-05T13:22:44Z</time>
      </trkpt>
      <trkpt lat="44.8258" lon="-0.36984">
        <ele>56</ele>
        <time>2013-10-05T13:22:54Z</time>
      </trkpt>
      <trkpt lat="44.8259" lon="-0.36963">
        <ele>57</ele>
        <time>2013-10-05T13:23:03Z</time>
      </trkpt>
      <trkpt lat="44.82597" lon="-0.36949">
        <ele>58</ele>
        <time>2013-10-05T13:23:10Z</time>
      </trkpt>
      <trkpt lat="44.82607" lon="-0.36931">
        <ele>60</ele>
        <time>2013-10-05T13:23:19Z</time>
      </trkpt>
      <trkpt lat="44.82619" lon="-0.36906">
        <ele>61</ele>
        <time>2013-10-05T13:23:31Z</time>
      </trkpt>
      <trkpt lat="44.82628" lon="-0.36888">
        <ele>62</ele>
        <time>2013-10-05T13:23:39Z</time>
      </trkpt>
      <trkpt lat="44.82643" lon="-0.36872">
        <ele>63</ele>
        <time>2013-10-05T13:23:49Z</time>
      </trkpt>
      <trkpt lat="44.82649" lon="-0.36867">
        <ele>64</ele>
        <time>2013-10-05T13:23:54Z</time>
      </trkpt>
      <trkpt lat="44.82661" lon="-0.36861">
        <ele>65</ele>
        <time>2013-10-05T13:24:03Z</time>
      </trkpt>
      <trkpt lat="44.82676" lon="-0.36847">
        <ele>66</ele>
        <time>2013-10-05T13:24:13Z</time>
      </trkpt>
      <trkpt lat="44.82691" lon="-0.36833">
        <ele>67</ele>
        <time>2013-10-05T13:24:23Z</time>
      </trkpt>
      <trkpt lat="44.82704" lon="-0.36824">
        <ele>69</ele>
        <time>2013-10-05T13:24:33Z</time>
      </trkpt>
      <trkpt lat="44.82705" lon="-0.36824">
        <ele>69</ele>
        <time>2013-10-05T13:24:34Z</time>
      </trkpt>
      <trkpt lat="44.82715" lon="-0.36822">
        <ele>70</ele>
        <time>2013-10-05T13:24:42Z</time>
      </trkpt>
      <trkpt lat="44.8273" lon="-0.36813">
        <ele>71</ele>
        <time>2013-10-05T13:24:53Z</time>
      </trkpt>
      <trkpt lat="44.82746" lon="-0.36807">
        <ele>73</ele>
        <time>2013-10-05T13:25:01Z</time>
      </trkpt>
      <trkpt lat="44.82765" lon="-0.36806">
        <ele>75</ele>
        <time>2013-10-05T13:25:10Z</time>
      </trkpt>
      <trkpt lat="44.82786" lon="-0.36811">
        <ele>75</ele>
        <time>2013-10-05T13:25:21Z</time>
      </trkpt>
      <trkpt lat="44.82809" lon="-0.36813">
        <ele>75</ele>
        <time>2013-10-05T13:25:33Z</time>
      </trkpt>
      <trkpt lat="44.82827" lon="-0.36809">
        <ele>74</ele>
        <time>2013-10-05T13:25:40Z</time>
      </trkpt>
      <trkpt lat="44.8283" lon="-0.3681">
        <ele>74</ele>
        <time>2013-10-05T13:25:45Z</time>
      </trkpt>
      <trkpt lat="44.82842" lon="-0.36801">
        <ele>74</ele>
        <time>2013-10-05T13:25:51Z</time>
      </trkpt>
      <trkpt lat="44.82845" lon="-0.36797">
        <ele>73</ele>
        <time>2013-10-05T13:25:53Z</time>
      </trkpt>
      <trkpt lat="44.82846" lon="-0.36785">
        <ele>72</ele>
        <time>2013-10-05T13:25:57Z</time>
      </trkpt>
      <trkpt lat="44.82842" lon="-0.36767">
        <ele>72</ele>
        <time>2013-10-05T13:26:05Z</time>
      </trkpt>
      <trkpt lat="44.82842" lon="-0.36765">
        <ele>72</ele>
        <time>2013-10-05T13:26:22Z</time>
      </trkpt>
      <trkpt lat="44.82843" lon="-0.36765">
        <ele>71</ele>
        <time>2013-10-05T13:26:37Z</time>
      </trkpt>
      <trkpt lat="44.82843" lon="-0.36765">
        <ele>71</ele>
        <time>2013-10-05T13:26:54Z</time>
      </trkpt>
      <trkpt lat="44.82843" lon="-0.36764">
        <ele>71</ele>
        <time>2013-10-05T13:27:11Z</time>
      </trkpt>
      <trkpt lat="44.82843" lon="-0.36764">
        <ele>71</ele>
        <time>2013-10-05T13:27:27Z</time>
      </trkpt>
      <trkpt lat="44.82844" lon="-0.36764">
        <ele>71</ele>
        <time>2013-10-05T13:27:44Z</time>
      </trkpt>
      <trkpt lat="44.82844" lon="-0.36763">
        <ele>71</ele>
        <time>2013-10-05T13:28:01Z</time>
      </trkpt>
      <trkpt lat="44.82844" lon="-0.36764">
        <ele>71</ele>
        <time>2013-10-05T13:28:20Z</time>
      </trkpt>
      <trkpt lat="44.82844" lon="-0.36764">
        <ele>71</ele>
        <time>2013-10-05T13:28:37Z</time>
      </trkpt>
      <trkpt lat="44.82844" lon="-0.36765">
        <ele>71</ele>
        <time>2013-10-05T13:28:52Z</time>
      </trkpt>
      <trkpt lat="44.82844" lon="-0.36765">
        <ele>71</ele>
        <time>2013-10-05T13:28:59Z</time>
      </trkpt>
      <trkpt lat="44.82845" lon="-0.36752">
        <ele>71</ele>
        <time>2013-10-05T13:29:06Z</time>
      </trkpt>
      <trkpt lat="44.82847" lon="-0.3672">
        <ele>69</ele>
        <time>2013-10-05T13:29:15Z</time>
      </trkpt>
      <trkpt lat="44.82851" lon="-0.36677">
        <ele>68</ele>
        <time>2013-10-05T13:29:24Z</time>
      </trkpt>
      <trkpt lat="44.82853" lon="-0.3663">
        <ele>65</ele>
        <time>2013-10-05T13:29:33Z</time>
      </trkpt>
      <trkpt lat="44.82841" lon="-0.36591">
        <ele>63</ele>
        <time>2013-10-05T13:29:41Z</time>
      </trkpt>
      <trkpt lat="44.82827" lon="-0.36554">
        <ele>62</ele>
        <time>2013-10-05T13:29:50Z</time>
      </trkpt>
      <trkpt lat="44.82815" lon="-0.36509">
        <ele>61</ele>
        <time>2013-10-05T13:29:59Z</time>
      </trkpt>
      <trkpt lat="44.82812" lon="-0.36502">
        <ele>61</ele>
        <time>2013-10-05T13:30:01Z</time>
      </trkpt>
      <trkpt lat="44.82819" lon="-0.36496">
        <ele>60</ele>
        <time>2013-10-05T13:30:07Z</time>
      </trkpt>
      <trkpt lat="44.8284" lon="-0.36513">
        <ele>59</ele>
        <time>2013-10-05T13:30:18Z</time>
      </trkpt>
      <trkpt lat="44.82863" lon="-0.36527">
        <ele>58</ele>
        <time>2013-10-05T13:30:27Z</time>
      </trkpt>
      <trkpt lat="44.82892" lon="-0.36542">
        <ele>57</ele>
        <time>2013-10-05T13:30:36Z</time>
      </trkpt>
      <trkpt lat="44.82927" lon="-0.3656">
        <ele>56</ele>
        <time>2013-10-05T13:30:47Z</time>
      </trkpt>
      <trkpt lat="44.82949" lon="-0.3656">
        <ele>55</ele>
        <time>2013-10-05T13:30:52Z</time>
      </trkpt>
      <trkpt lat="44.82955" lon="-0.36558">
        <ele>55</ele>
        <time>2013-10-05T13:30:53Z</time>
      </trkpt>
      <trkpt lat="44.82961" lon="-0.36555">
        <ele>54</ele>
        <time>2013-10-05T13:30:54Z</time>
      </trkpt>
      <trkpt lat="44.82967" lon="-0.36551">
        <ele>53</ele>
        <time>2013-10-05T13:30:55Z</time>
      </trkpt>
      <trkpt lat="44.82974" lon="-0.36546">
        <ele>53</ele>
        <time>2013-10-05T13:30:56Z</time>
      </trkpt>
      <trkpt lat="44.82981" lon="-0.3654">
        <ele>52</ele>
        <time>2013-10-05T13:30:57Z</time>
      </trkpt>
      <trkpt lat="44.83036" lon="-0.36488">
        <ele>46</ele>
        <time>2013-10-05T13:31:04Z</time>
      </trkpt>
      <trkpt lat="44.83095" lon="-0.36429">
        <ele>43</ele>
        <time>2013-10-05T13:31:12Z</time>
      </trkpt>
      <trkpt lat="44.83104" lon="-0.3642">
        <ele>42</ele>
        <time>2013-10-05T13:31:14Z</time>
      </trkpt>
      <trkpt lat="44.83107" lon="-0.36415">
        <ele>42</ele>
        <time>2013-10-05T13:31:15Z</time>
      </trkpt>
      <trkpt lat="44.83108" lon="-0.36409">
        <ele>42</ele>
        <time>2013-10-05T13:31:16Z</time>
      </trkpt>
      <trkpt lat="44.83107" lon="-0.36403">
        <ele>42</ele>
        <time>2013-10-05T13:31:17Z</time>
      </trkpt>
      <trkpt lat="44.83106" lon="-0.36398">
        <ele>42</ele>
        <time>2013-10-05T13:31:18Z</time>
      </trkpt>
      <trkpt lat="44.83104" lon="-0.36392">
        <ele>42</ele>
        <time>2013-10-05T13:31:19Z</time>
      </trkpt>
      <trkpt lat="44.83102" lon="-0.36388">
        <ele>42</ele>
        <time>2013-10-05T13:31:20Z</time>
      </trkpt>
      <trkpt lat="44.831" lon="-0.36385">
        <ele>42</ele>
        <time>2013-10-05T13:31:21Z</time>
      </trkpt>
      <trkpt lat="44.83097" lon="-0.36375">
        <ele>42</ele>
        <time>2013-10-05T13:31:26Z</time>
      </trkpt>
      <trkpt lat="44.831" lon="-0.36375">
        <ele>42</ele>
        <time>2013-10-05T13:31:34Z</time>
      </trkpt>
      <trkpt lat="44.83101" lon="-0.36375">
        <ele>42</ele>
        <time>2013-10-05T13:31:42Z</time>
      </trkpt>
      <trkpt lat="44.83101" lon="-0.36376">
        <ele>42</ele>
        <time>2013-10-05T13:31:53Z</time>
      </trkpt>
      <trkpt lat="44.83101" lon="-0.36376">
        <ele>42</ele>
        <time>2013-10-05T13:32:08Z</time>
      </trkpt>
      <trkpt lat="44.83102" lon="-0.36376">
        <ele>42</ele>
        <time>2013-10-05T13:32:26Z</time>
      </trkpt>
      <trkpt lat="44.83102" lon="-0.36376">
        <ele>42</ele>
        <time>2013-10-05T13:32:38Z</time>
      </trkpt>
      <trkpt lat="44.83102" lon="-0.36377">
        <ele>42</ele>
        <time>2013-10-05T13:32:52Z</time>
      </trkpt>
      <trkpt lat="44.83103" lon="-0.36377">
        <ele>42</ele>
        <time>2013-10-05T13:33:04Z</time>
      </trkpt>
      <trkpt lat="44.83102" lon="-0.36377">
        <ele>42</ele>
        <time>2013-10-05T13:33:19Z</time>
      </trkpt>
      <trkpt lat="44.83102" lon="-0.36377">
        <ele>42</ele>
        <time>2013-10-05T13:33:36Z</time>
      </trkpt>
      <trkpt lat="44.83102" lon="-0.36377">
        <ele>42</ele>
        <time>2013-10-05T13:33:53Z</time>
      </trkpt>
      <trkpt lat="44.83103" lon="-0.36378">
        <ele>42</ele>
        <time>2013-10-05T13:34:04Z</time>
      </trkpt>
      <trkpt lat="44.83103" lon="-0.36378">
        <ele>42</ele>
        <time>2013-10-05T13:34:18Z</time>
      </trkpt>
      <trkpt lat="44.83103" lon="-0.36378">
        <ele>42</ele>
        <time>2013-10-05T13:34:35Z</time>
      </trkpt>
      <trkpt lat="44.83102" lon="-0.36378">
        <ele>42</ele>
        <time>2013-10-05T13:34:51Z</time>
      </trkpt>
      <trkpt lat="44.83103" lon="-0.36378">
        <ele>42</ele>
        <time>2013-10-05T13:35:05Z</time>
      </trkpt>
      <trkpt lat="44.83103" lon="-0.36378">
        <ele>42</ele>
        <time>2013-10-05T13:35:23Z</time>
      </trkpt>
      <trkpt lat="44.83102" lon="-0.36378">
        <ele>42</ele>
        <time>2013-10-05T13:35:41Z</time>
      </trkpt>
      <trkpt lat="44.83103" lon="-0.36378">
        <ele>42</ele>
        <time>2013-10-05T13:36:00Z</time>
      </trkpt>
      <trkpt lat="44.83104" lon="-0.36378">
        <ele>42</ele>
        <time>2013-10-05T13:36:21Z</time>
      </trkpt>
      <trkpt lat="44.83104" lon="-0.36378">
        <ele>42</ele>
        <time>2013-10-05T13:36:42Z</time>
      </trkpt>
      <trkpt lat="44.83104" lon="-0.36378">
        <ele>42</ele>
        <time>2013-10-05T13:37:00Z</time>
      </trkpt>
      <trkpt lat="44.83104" lon="-0.36378">
        <ele>42</ele>
        <time>2013-10-05T13:37:16Z</time>
      </trkpt>
      <trkpt lat="44.83104" lon="-0.36378">
        <ele>42</ele>
        <time>2013-10-05T13:37:34Z</time>
      </trkpt>
      <trkpt lat="44.83104" lon="-0.36378">
        <ele>42</ele>
        <time>2013-10-05T13:37:55Z</time>
      </trkpt>
      <trkpt lat="44.83105" lon="-0.36378">
        <ele>42</ele>
        <time>2013-10-05T13:38:16Z</time>
      </trkpt>
      <trkpt lat="44.83105" lon="-0.36378">
        <ele>42</ele>
        <time>2013-10-05T13:38:36Z</time>
      </trkpt>
      <trkpt lat="44.83105" lon="-0.36378">
        <ele>42</ele>
        <time>2013-10-05T13:38:54Z</time>
      </trkpt>
      <trkpt lat="44.83105" lon="-0.36378">
        <ele>42</ele>
        <time>2013-10-05T13:39:12Z</time>
      </trkpt>
      <trkpt lat="44.83105" lon="-0.36378">
        <ele>42</ele>
        <time>2013-10-05T13:39:30Z</time>
      </trkpt>
      <trkpt lat="44.83104" lon="-0.36378">
        <ele>42</ele>
        <time>2013-10-05T13:39:50Z</time>
      </trkpt>
      <trkpt lat="44.83104" lon="-0.36378">
        <ele>42</ele>
        <time>2013-10-05T13:40:05Z</time>
      </trkpt>
      <trkpt lat="44.83104" lon="-0.36378">
        <ele>42</ele>
        <time>2013-10-05T13:40:21Z</time>
      </trkpt>
      <trkpt lat="44.83105" lon="-0.36378">
        <ele>42</ele>
        <time>2013-10-05T13:40:34Z</time>
      </trkpt>
      <trkpt lat="44.83105" lon="-0.36378">
        <ele>42</ele>
        <time>2013-10-05T13:40:54Z</time>
      </trkpt>
      <trkpt lat="44.83105" lon="-0.36377">
        <ele>42</ele>
        <time>2013-10-05T13:41:10Z</time>
      </trkpt>
      <trkpt lat="44.83104" lon="-0.36377">
        <ele>42</ele>
        <time>2013-10-05T13:41:16Z</time>
      </trkpt>
      <trkpt lat="44.83103" lon="-0.36377">
        <ele>42</ele>
        <time>2013-10-05T13:41:17Z</time>
      </trkpt>
      <trkpt lat="44.83102" lon="-0.36378">
        <ele>42</ele>
        <time>2013-10-05T13:41:18Z</time>
      </trkpt>
      <trkpt lat="44.831" lon="-0.36378">
        <ele>42</ele>
        <time>2013-10-05T13:41:19Z</time>
      </trkpt>
      <trkpt lat="44.83099" lon="-0.36379">
        <ele>42</ele>
        <time>2013-10-05T13:41:20Z</time>
      </trkpt>
      <trkpt lat="44.83097" lon="-0.36379">
        <ele>42</ele>
        <time>2013-10-05T13:41:21Z</time>
      </trkpt>
      <trkpt lat="44.83094" lon="-0.36379">
        <ele>42</ele>
        <time>2013-10-05T13:41:23Z</time>
      </trkpt>
      <trkpt lat="44.83093" lon="-0.36377">
        <ele>42</ele>
        <time>2013-10-05T13:41:24Z</time>
      </trkpt>
      <trkpt lat="44.83083" lon="-0.36361">
        <ele>41</ele>
        <time>2013-10-05T13:41:35Z</time>
      </trkpt>
      <trkpt lat="44.83071" lon="-0.36351">
        <ele>41</ele>
        <time>2013-10-05T13:41:43Z</time>
      </trkpt>
      <trkpt lat="44.83059" lon="-0.36336">
        <ele>41</ele>
        <time>2013-10-05T13:41:51Z</time>
      </trkpt>
      <trkpt lat="44.83043" lon="-0.36315">
        <ele>41</ele>
        <time>2013-10-05T13:42:02Z</time>
      </trkpt>
      <trkpt lat="44.83027" lon="-0.36301">
        <ele>41</ele>
        <time>2013-10-05T13:42:11Z</time>
      </trkpt>
      <trkpt lat="44.8301" lon="-0.36292">
        <ele>41</ele>
        <time>2013-10-05T13:42:20Z</time>
      </trkpt>
      <trkpt lat="44.83009" lon="-0.36269">
        <ele>40</ele>
        <time>2013-10-05T13:42:25Z</time>
      </trkpt>
      <trkpt lat="44.83011" lon="-0.36221">
        <ele>37</ele>
        <time>2013-10-05T13:42:31Z</time>
      </trkpt>
      <trkpt lat="44.83009" lon="-0.36213">
        <ele>37</ele>
        <time>2013-10-05T13:42:32Z</time>
      </trkpt>
      <trkpt lat="44.83006" lon="-0.36205">
        <ele>37</ele>
        <time>2013-10-05T13:42:33Z</time>
      </trkpt>
      <trkpt lat="44.83001" lon="-0.36198">
        <ele>36</ele>
        <time>2013-10-05T13:42:34Z</time>
      </trkpt>
      <trkpt lat="44.82996" lon="-0.36191">
        <ele>36</ele>
        <time>2013-10-05T13:42:35Z</time>
      </trkpt>
      <trkpt lat="44.8299" lon="-0.36185">
        <ele>36</ele>
        <time>2013-10-05T13:42:36Z</time>
      </trkpt>
      <trkpt lat="44.82932" lon="-0.36124">
        <ele>34</ele>
        <time>2013-10-05T13:42:46Z</time>
      </trkpt>
      <trkpt lat="44.82912" lon="-0.36078">
        <ele>34</ele>
        <time>2013-10-05T13:42:52Z</time>
      </trkpt>
      <trkpt lat="44.8289" lon="-0.36009">
        <ele>34</ele>
        <time>2013-10-05T13:43:02Z</time>
      </trkpt>
      <trkpt lat="44.82873" lon="-0.35982">
        <ele>35</ele>
        <time>2013-10-05T13:43:09Z</time>
      </trkpt>
      <trkpt lat="44.82855" lon="-0.35953">
        <ele>36</ele>
        <time>2013-10-05T13:43:18Z</time>
      </trkpt>
      <trkpt lat="44.82833" lon="-0.35914">
        <ele>38</ele>
        <time>2013-10-05T13:43:29Z</time>
      </trkpt>
      <trkpt lat="44.8281" lon="-0.35866">
        <ele>39</ele>
        <time>2013-10-05T13:43:42Z</time>
      </trkpt>
      <trkpt lat="44.82791" lon="-0.35811">
        <ele>39</ele>
        <time>2013-10-05T13:43:55Z</time>
      </trkpt>
      <trkpt lat="44.82777" lon="-0.35763">
        <ele>39</ele>
        <time>2013-10-05T13:44:05Z</time>
      </trkpt>
      <trkpt lat="44.82757" lon="-0.35703">
        <ele>39</ele>
        <time>2013-10-05T13:44:17Z</time>
      </trkpt>
      <trkpt lat="44.82735" lon="-0.35646">
        <ele>38</ele>
        <time>2013-10-05T13:44:26Z</time>
      </trkpt>
      <trkpt lat="44.82704" lon="-0.35596">
        <ele>38</ele>
        <time>2013-10-05T13:44:34Z</time>
      </trkpt>
      <trkpt lat="44.82685" lon="-0.35539">
        <ele>36</ele>
        <time>2013-10-05T13:44:42Z</time>
      </trkpt>
      <trkpt lat="44.8267" lon="-0.35467">
        <ele>34</ele>
        <time>2013-10-05T13:44:51Z</time>
      </trkpt>
      <trkpt lat="44.82665" lon="-0.35452">
        <ele>34</ele>
        <time>2013-10-05T13:44:53Z</time>
      </trkpt>
      <trkpt lat="44.82662" lon="-0.35445">
        <ele>34</ele>
        <time>2013-10-05T13:44:54Z</time>
      </trkpt>
      <trkpt lat="44.82659" lon="-0.35439">
        <ele>34</ele>
        <time>2013-10-05T13:44:55Z</time>
      </trkpt>
      <trkpt lat="44.82655" lon="-0.35433">
        <ele>34</ele>
        <time>2013-10-05T13:44:56Z</time>
      </trkpt>
      <trkpt lat="44.8265" lon="-0.35427">
        <ele>34</ele>
        <time>2013-10-05T13:44:57Z</time>
      </trkpt>
      <trkpt lat="44.82646" lon="-0.35421">
        <ele>34</ele>
        <time>2013-10-05T13:44:58Z</time>
      </trkpt>
      <trkpt lat="44.82599" lon="-0.35373">
        <ele>34</ele>
        <time>2013-10-05T13:45:08Z</time>
      </trkpt>
      <trkpt lat="44.82562" lon="-0.35359">
        <ele>36</ele>
        <time>2013-10-05T13:45:16Z</time>
      </trkpt>
      <trkpt lat="44.82533" lon="-0.35352">
        <ele>38</ele>
        <time>2013-10-05T13:45:24Z</time>
      </trkpt>
      <trkpt lat="44.82507" lon="-0.35337">
        <ele>39</ele>
        <time>2013-10-05T13:45:34Z</time>
      </trkpt>
      <trkpt lat="44.82505" lon="-0.35337">
        <ele>39</ele>
        <time>2013-10-05T13:45:35Z</time>
      </trkpt>
      <trkpt lat="44.82503" lon="-0.35338">
        <ele>39</ele>
        <time>2013-10-05T13:45:36Z</time>
      </trkpt>
      <trkpt lat="44.82501" lon="-0.35339">
        <ele>39</ele>
        <time>2013-10-05T13:45:37Z</time>
      </trkpt>
      <trkpt lat="44.825" lon="-0.3534">
        <ele>39</ele>
        <time>2013-10-05T13:45:38Z</time>
      </trkpt>
      <trkpt lat="44.82489" lon="-0.35358">
        <ele>41</ele>
        <time>2013-10-05T13:45:47Z</time>
      </trkpt>
      <trkpt lat="44.82474" lon="-0.35383">
        <ele>42</ele>
        <time>2013-10-05T13:45:59Z</time>
      </trkpt>
      <trkpt lat="44.82463" lon="-0.35408">
        <ele>44</ele>
        <time>2013-10-05T13:46:08Z</time>
      </trkpt>
      <trkpt lat="44.82437" lon="-0.35445">
        <ele>45</ele>
        <time>2013-10-05T13:46:18Z</time>
      </trkpt>
      <trkpt lat="44.8242" lon="-0.35473">
        <ele>46</ele>
        <time>2013-10-05T13:46:28Z</time>
      </trkpt>
      <trkpt lat="44.82413" lon="-0.35487">
        <ele>47</ele>
        <time>2013-10-05T13:46:36Z</time>
      </trkpt>
      <trkpt lat="44.82412" lon="-0.35487">
        <ele>47</ele>
        <time>2013-10-05T13:46:48Z</time>
      </trkpt>
      <trkpt lat="44.82411" lon="-0.35491">
        <ele>47</ele>
        <time>2013-10-05T13:47:01Z</time>
      </trkpt>
      <trkpt lat="44.82406" lon="-0.35497">
        <ele>47</ele>
        <time>2013-10-05T13:47:12Z</time>
      </trkpt>
      <trkpt lat="44.82403" lon="-0.355">
        <ele>48</ele>
        <time>2013-10-05T13:47:22Z</time>
      </trkpt>
      <trkpt lat="44.82392" lon="-0.35515">
        <ele>48</ele>
        <time>2013-10-05T13:47:32Z</time>
      </trkpt>
      <trkpt lat="44.82378" lon="-0.35538">
        <ele>50</ele>
        <time>2013-10-05T13:47:44Z</time>
      </trkpt>
      <trkpt lat="44.82362" lon="-0.35555">
        <ele>51</ele>
        <time>2013-10-05T13:47:55Z</time>
      </trkpt>
      <trkpt lat="44.82349" lon="-0.35571">
        <ele>51</ele>
        <time>2013-10-05T13:48:06Z</time>
      </trkpt>
      <trkpt lat="44.82329" lon="-0.35592">
        <ele>52</ele>
        <time>2013-10-05T13:48:17Z</time>
      </trkpt>
      <trkpt lat="44.82316" lon="-0.35609">
        <ele>53</ele>
        <time>2013-10-05T13:48:27Z</time>
      </trkpt>
      <trkpt lat="44.82311" lon="-0.35615">
        <ele>53</ele>
        <time>2013-10-05T13:48:31Z</time>
      </trkpt>
      <trkpt lat="44.82297" lon="-0.35634">
        <ele>54</ele>
        <time>2013-10-05T13:48:41Z</time>
      </trkpt>
      <trkpt lat="44.82277" lon="-0.35661">
        <ele>55</ele>
        <time>2013-10-05T13:48:53Z</time>
      </trkpt>
      <trkpt lat="44.82262" lon="-0.35676">
        <ele>55</ele>
        <time>2013-10-05T13:49:03Z</time>
      </trkpt>
      <trkpt lat="44.82243" lon="-0.35703">
        <ele>56</ele>
        <time>2013-10-05T13:49:13Z</time>
      </trkpt>
      <trkpt lat="44.82227" lon="-0.35724">
        <ele>56</ele>
        <time>2013-10-05T13:49:23Z</time>
      </trkpt>
      <trkpt lat="44.8222" lon="-0.3574">
        <ele>57</ele>
        <time>2013-10-05T13:49:32Z</time>
      </trkpt>
      <trkpt lat="44.82215" lon="-0.35748">
        <ele>57</ele>
        <time>2013-10-05T13:49:38Z</time>
      </trkpt>
      <trkpt lat="44.82197" lon="-0.35766">
        <ele>58</ele>
        <time>2013-10-05T13:49:48Z</time>
      </trkpt>
      <trkpt lat="44.82171" lon="-0.35776">
        <ele>58</ele>
        <time>2013-10-05T13:49:56Z</time>
      </trkpt>
      <trkpt lat="44.82152" lon="-0.35781">
        <ele>58</ele>
        <time>2013-10-05T13:50:05Z</time>
      </trkpt>
      <trkpt lat="44.82135" lon="-0.35785">
        <ele>58</ele>
        <time>2013-10-05T13:50:14Z</time>
      </trkpt>
      <trkpt lat="44.82126" lon="-0.35785">
        <ele>58</ele>
        <time>2013-10-05T13:50:21Z</time>
      </trkpt>
      <trkpt lat="44.82123" lon="-0.35775">
        <ele>58</ele>
        <time>2013-10-05T13:50:25Z</time>
      </trkpt>
      <trkpt lat="44.82124" lon="-0.35742">
        <ele>57</ele>
        <time>2013-10-05T13:50:33Z</time>
      </trkpt>
      <trkpt lat="44.82119" lon="-0.35693">
        <ele>56</ele>
        <time>2013-10-05T13:50:39Z</time>
      </trkpt>
      <trkpt lat="44.82111" lon="-0.3561">
        <ele>54</ele>
        <time>2013-10-05T13:50:47Z</time>
      </trkpt>
      <trkpt lat="44.82096" lon="-0.35533">
        <ele>53</ele>
        <time>2013-10-05T13:50:55Z</time>
      </trkpt>
      <trkpt lat="44.82082" lon="-0.355">
        <ele>53</ele>
        <time>2013-10-05T13:50:59Z</time>
      </trkpt>
      <trkpt lat="44.82055" lon="-0.35458">
        <ele>52</ele>
        <time>2013-10-05T13:51:06Z</time>
      </trkpt>
      <trkpt lat="44.8203" lon="-0.35419">
        <ele>51</ele>
        <time>2013-10-05T13:51:14Z</time>
      </trkpt>
      <trkpt lat="44.82012" lon="-0.35393">
        <ele>51</ele>
        <time>2013-10-05T13:51:22Z</time>
      </trkpt>
      <trkpt lat="44.82008" lon="-0.35388">
        <ele>50</ele>
        <time>2013-10-05T13:51:28Z</time>
      </trkpt>
      <trkpt lat="44.82006" lon="-0.35386">
        <ele>50</ele>
        <time>2013-10-05T13:51:39Z</time>
      </trkpt>
      <trkpt lat="44.82005" lon="-0.35386">
        <ele>50</ele>
        <time>2013-10-05T13:51:40Z</time>
      </trkpt>
      <trkpt lat="44.8199" lon="-0.35375">
        <ele>50</ele>
        <time>2013-10-05T13:51:46Z</time>
      </trkpt>
      <trkpt lat="44.81972" lon="-0.35359">
        <ele>48</ele>
        <time>2013-10-05T13:51:55Z</time>
      </trkpt>
      <trkpt lat="44.81959" lon="-0.35352">
        <ele>47</ele>
        <time>2013-10-05T13:52:05Z</time>
      </trkpt>
      <trkpt lat="44.81958" lon="-0.35344">
        <ele>47</ele>
        <time>2013-10-05T13:52:17Z</time>
      </trkpt>
      <trkpt lat="44.81956" lon="-0.3534">
        <ele>47</ele>
        <time>2013-10-05T13:52:28Z</time>
      </trkpt>
      <trkpt lat="44.81956" lon="-0.35339">
        <ele>47</ele>
        <time>2013-10-05T13:52:38Z</time>
      </trkpt>
      <trkpt lat="44.81951" lon="-0.35332">
        <ele>47</ele>
        <time>2013-10-05T13:52:49Z</time>
      </trkpt>
      <trkpt lat="44.81945" lon="-0.35326">
        <ele>47</ele>
        <time>2013-10-05T13:53:00Z</time>
      </trkpt>
      <trkpt lat="44.81938" lon="-0.35317">
        <ele>46</ele>
        <time>2013-10-05T13:53:09Z</time>
      </trkpt>
      <trkpt lat="44.81931" lon="-0.35309">
        <ele>45</ele>
        <time>2013-10-05T13:53:19Z</time>
      </trkpt>
      <trkpt lat="44.81925" lon="-0.35304">
        <ele>44</ele>
        <time>2013-10-05T13:53:28Z</time>
      </trkpt>
      <trkpt lat="44.81909" lon="-0.3529">
        <ele>41</ele>
        <time>2013-10-05T13:53:36Z</time>
      </trkpt>
      <trkpt lat="44.81903" lon="-0.3529">
        <ele>40</ele>
        <time>2013-10-05T13:53:40Z</time>
      </trkpt>
      <trkpt lat="44.81902" lon="-0.3529">
        <ele>40</ele>
        <time>2013-10-05T13:53:41Z</time>
      </trkpt>
      <trkpt lat="44.81892" lon="-0.35304">
        <ele>40</ele>
        <time>2013-10-05T13:53:52Z</time>
      </trkpt>
      <trkpt lat="44.81877" lon="-0.35323">
        <ele>40</ele>
        <time>2013-10-05T13:54:04Z</time>
      </trkpt>
      <trkpt lat="44.8186" lon="-0.35327">
        <ele>38</ele>
        <time>2013-10-05T13:54:13Z</time>
      </trkpt>
      <trkpt lat="44.81859" lon="-0.35324">
        <ele>38</ele>
        <time>2013-10-05T13:54:14Z</time>
      </trkpt>
      <trkpt lat="44.81857" lon="-0.35322">
        <ele>38</ele>
        <time>2013-10-05T13:54:15Z</time>
      </trkpt>
      <trkpt lat="44.81841" lon="-0.35301">
        <ele>38</ele>
        <time>2013-10-05T13:54:24Z</time>
      </trkpt>
      <trkpt lat="44.81831" lon="-0.35287">
        <ele>38</ele>
        <time>2013-10-05T13:54:32Z</time>
      </trkpt>
      <trkpt lat="44.81817" lon="-0.35274">
        <ele>39</ele>
        <time>2013-10-05T13:54:41Z</time>
      </trkpt>
      <trkpt lat="44.81811" lon="-0.35265">
        <ele>40</ele>
        <time>2013-10-05T13:54:49Z</time>
      </trkpt>
      <trkpt lat="44.81811" lon="-0.35267">
        <ele>40</ele>
        <time>2013-10-05T13:54:59Z</time>
      </trkpt>
      <trkpt lat="44.81811" lon="-0.35269">
        <ele>40</ele>
        <time>2013-10-05T13:55:05Z</time>
      </trkpt>
      <trkpt lat="44.81813" lon="-0.35267">
        <ele>39</ele>
        <time>2013-10-05T13:55:18Z</time>
      </trkpt>
      <trkpt lat="44.81811" lon="-0.35267">
        <ele>40</ele>
        <time>2013-10-05T13:55:31Z</time>
      </trkpt>
      <trkpt lat="44.81809" lon="-0.3527">
        <ele>40</ele>
        <time>2013-10-05T13:55:49Z</time>
      </trkpt>
      <trkpt lat="44.81807" lon="-0.35268">
        <ele>40</ele>
        <time>2013-10-05T13:56:02Z</time>
      </trkpt>
      <trkpt lat="44.81808" lon="-0.35256">
        <ele>40</ele>
        <time>2013-10-05T13:56:11Z</time>
      </trkpt>
      <trkpt lat="44.8181" lon="-0.35249">
        <ele>40</ele>
        <time>2013-10-05T13:56:15Z</time>
      </trkpt>
      <trkpt lat="44.81816" lon="-0.35226">
        <ele>40</ele>
        <time>2013-10-05T13:56:25Z</time>
      </trkpt>
      <trkpt lat="44.81822" lon="-0.35204">
        <ele>39</ele>
        <time>2013-10-05T13:56:34Z</time>
      </trkpt>
      <trkpt lat="44.81828" lon="-0.35177">
        <ele>38</ele>
        <time>2013-10-05T13:56:42Z</time>
      </trkpt>
      <trkpt lat="44.81829" lon="-0.3515">
        <ele>38</ele>
        <time>2013-10-05T13:56:49Z</time>
      </trkpt>
      <trkpt lat="44.81822" lon="-0.35128">
        <ele>37</ele>
        <time>2013-10-05T13:56:57Z</time>
      </trkpt>
      <trkpt lat="44.8181" lon="-0.35113">
        <ele>37</ele>
        <time>2013-10-05T13:57:06Z</time>
      </trkpt>
      <trkpt lat="44.81799" lon="-0.35094">
        <ele>37</ele>
        <time>2013-10-05T13:57:15Z</time>
      </trkpt>
      <trkpt lat="44.8179" lon="-0.35077">
        <ele>37</ele>
        <time>2013-10-05T13:57:24Z</time>
      </trkpt>
      <trkpt lat="44.81772" lon="-0.35061">
        <ele>37</ele>
        <time>2013-10-05T13:57:34Z</time>
      </trkpt>
      <trkpt lat="44.81768" lon="-0.35056">
        <ele>37</ele>
        <time>2013-10-05T13:57:42Z</time>
      </trkpt>
      <trkpt lat="44.81766" lon="-0.35056">
        <ele>37</ele>
        <time>2013-10-05T13:57:58Z</time>
      </trkpt>
      <trkpt lat="44.81759" lon="-0.35058">
        <ele>37</ele>
        <time>2013-10-05T13:58:13Z</time>
      </trkpt>
      <trkpt lat="44.81748" lon="-0.35061">
        <ele>37</ele>
        <time>2013-10-05T13:58:20Z</time>
      </trkpt>
      <trkpt lat="44.81722" lon="-0.35074">
        <ele>38</ele>
        <time>2013-10-05T13:58:28Z</time>
      </trkpt>
      <trkpt lat="44.81682" lon="-0.35089">
        <ele>37</ele>
        <time>2013-10-05T13:58:36Z</time>
      </trkpt>
      <trkpt lat="44.81647" lon="-0.35101">
        <ele>37</ele>
        <time>2013-10-05T13:58:44Z</time>
      </trkpt>
      <trkpt lat="44.8163" lon="-0.35099">
        <ele>37</ele>
        <time>2013-10-05T13:58:52Z</time>
      </trkpt>
      <trkpt lat="44.81617" lon="-0.35104">
        <ele>37</ele>
        <time>2013-10-05T13:58:59Z</time>
      </trkpt>
      <trkpt lat="44.81607" lon="-0.35093">
        <ele>37</ele>
        <time>2013-10-05T13:59:06Z</time>
      </trkpt>
      <trkpt lat="44.81607" lon="-0.3509">
        <ele>36</ele>
        <time>2013-10-05T13:59:07Z</time>
      </trkpt>
      <trkpt lat="44.81607" lon="-0.35065">
        <ele>36</ele>
        <time>2013-10-05T13:59:15Z</time>
      </trkpt>
      <trkpt lat="44.81608" lon="-0.35024">
        <ele>36</ele>
        <time>2013-10-05T13:59:24Z</time>
      </trkpt>
      <trkpt lat="44.81609" lon="-0.34982">
        <ele>39</ele>
        <time>2013-10-05T13:59:33Z</time>
      </trkpt>
      <trkpt lat="44.81615" lon="-0.34946">
        <ele>41</ele>
        <time>2013-10-05T13:59:41Z</time>
      </trkpt>
      <trkpt lat="44.81627" lon="-0.34914">
        <ele>42</ele>
        <time>2013-10-05T13:59:49Z</time>
      </trkpt>
      <trkpt lat="44.81639" lon="-0.34889">
        <ele>43</ele>
        <time>2013-10-05T13:59:57Z</time>
      </trkpt>
      <trkpt lat="44.81653" lon="-0.34862">
        <ele>44</ele>
        <time>2013-10-05T14:00:05Z</time>
      </trkpt>
      <trkpt lat="44.81652" lon="-0.34848">
        <ele>45</ele>
        <time>2013-10-05T14:00:10Z</time>
      </trkpt>
      <trkpt lat="44.8165" lon="-0.34849">
        <ele>45</ele>
        <time>2013-10-05T14:00:12Z</time>
      </trkpt>
      <trkpt lat="44.81632" lon="-0.34861">
        <ele>47</ele>
        <time>2013-10-05T14:00:21Z</time>
      </trkpt>
      <trkpt lat="44.81608" lon="-0.34866">
        <ele>48</ele>
        <time>2013-10-05T14:00:29Z</time>
      </trkpt>
      <trkpt lat="44.81582" lon="-0.3487">
        <ele>48</ele>
        <time>2013-10-05T14:00:37Z</time>
      </trkpt>
      <trkpt lat="44.81556" lon="-0.34871">
        <ele>48</ele>
        <time>2013-10-05T14:00:46Z</time>
      </trkpt>
      <trkpt lat="44.81541" lon="-0.34861">
        <ele>48</ele>
        <time>2013-10-05T14:00:53Z</time>
      </trkpt>
      <trkpt lat="44.81532" lon="-0.34847">
        <ele>48</ele>
        <time>2013-10-05T14:01:01Z</time>
      </trkpt>
      <trkpt lat="44.81516" lon="-0.34835">
        <ele>49</ele>
        <time>2013-10-05T14:01:10Z</time>
      </trkpt>
      <trkpt lat="44.81489" lon="-0.34819">
        <ele>47</ele>
        <time>2013-10-05T14:01:22Z</time>
      </trkpt>
      <trkpt lat="44.81465" lon="-0.34808">
        <ele>46</ele>
        <time>2013-10-05T14:01:32Z</time>
      </trkpt>
      <trkpt lat="44.81436" lon="-0.34789">
        <ele>46</ele>
        <time>2013-10-05T14:01:41Z</time>
      </trkpt>
      <trkpt lat="44.81404" lon="-0.34766">
        <ele>46</ele>
        <time>2013-10-05T14:01:50Z</time>
      </trkpt>
      <trkpt lat="44.81388" lon="-0.34756">
        <ele>47</ele>
        <time>2013-10-05T14:01:58Z</time>
      </trkpt>
      <trkpt lat="44.81364" lon="-0.34746">
        <ele>48</ele>
        <time>2013-10-05T14:02:06Z</time>
      </trkpt>
      <trkpt lat="44.81336" lon="-0.34738">
        <ele>48</ele>
        <time>2013-10-05T14:02:14Z</time>
      </trkpt>
      <trkpt lat="44.81306" lon="-0.3474">
        <ele>48</ele>
        <time>2013-10-05T14:02:23Z</time>
      </trkpt>
      <trkpt lat="44.81271" lon="-0.3473">
        <ele>48</ele>
        <time>2013-10-05T14:02:33Z</time>
      </trkpt>
      <trkpt lat="44.81249" lon="-0.34705">
        <ele>48</ele>
        <time>2013-10-05T14:02:42Z</time>
      </trkpt>
      <trkpt lat="44.81227" lon="-0.34679">
        <ele>48</ele>
        <time>2013-10-05T14:02:51Z</time>
      </trkpt>
      <trkpt lat="44.81204" lon="-0.34653">
        <ele>49</ele>
        <time>2013-10-05T14:03:00Z</time>
      </trkpt>
      <trkpt lat="44.81179" lon="-0.34632">
        <ele>50</ele>
        <time>2013-10-05T14:03:08Z</time>
      </trkpt>
      <trkpt lat="44.81152" lon="-0.34611">
        <ele>52</ele>
        <time>2013-10-05T14:03:17Z</time>
      </trkpt>
      <trkpt lat="44.81117" lon="-0.34595">
        <ele>52</ele>
        <time>2013-10-05T14:03:27Z</time>
      </trkpt>
      <trkpt lat="44.81086" lon="-0.34577">
        <ele>53</ele>
        <time>2013-10-05T14:03:36Z</time>
      </trkpt>
      <trkpt lat="44.8105" lon="-0.34569">
        <ele>53</ele>
        <time>2013-10-05T14:03:46Z</time>
      </trkpt>
      <trkpt lat="44.81036" lon="-0.3457">
        <ele>52</ele>
        <time>2013-10-05T14:03:52Z</time>
      </trkpt>
      <trkpt lat="44.8102" lon="-0.34572">
        <ele>51</ele>
        <time>2013-10-05T14:04:03Z</time>
      </trkpt>
      <trkpt lat="44.81018" lon="-0.34572">
        <ele>51</ele>
        <time>2013-10-05T14:04:09Z</time>
      </trkpt>
      <trkpt lat="44.81017" lon="-0.34572">
        <ele>51</ele>
        <time>2013-10-05T14:04:24Z</time>
      </trkpt>
      <trkpt lat="44.81016" lon="-0.34572">
        <ele>51</ele>
        <time>2013-10-05T14:04:40Z</time>
      </trkpt>
      <trkpt lat="44.81015" lon="-0.34572">
        <ele>51</ele>
        <time>2013-10-05T14:04:58Z</time>
      </trkpt>
      <trkpt lat="44.81015" lon="-0.34572">
        <ele>51</ele>
        <time>2013-10-05T14:05:15Z</time>
      </trkpt>
      <trkpt lat="44.81014" lon="-0.34573">
        <ele>51</ele>
        <time>2013-10-05T14:05:35Z</time>
      </trkpt>
      <trkpt lat="44.81015" lon="-0.34573">
        <ele>51</ele>
        <time>2013-10-05T14:05:54Z</time>
      </trkpt>
      <trkpt lat="44.81015" lon="-0.34574">
        <ele>51</ele>
        <time>2013-10-05T14:06:11Z</time>
      </trkpt>
      <trkpt lat="44.81015" lon="-0.34574">
        <ele>51</ele>
        <time>2013-10-05T14:06:26Z</time>
      </trkpt>
      <trkpt lat="44.81015" lon="-0.34575">
        <ele>51</ele>
        <time>2013-10-05T14:06:44Z</time>
      </trkpt>
      <trkpt lat="44.81014" lon="-0.34576">
        <ele>51</ele>
        <time>2013-10-05T14:07:05Z</time>
      </trkpt>
      <trkpt lat="44.81013" lon="-0.34575">
        <ele>51</ele>
        <time>2013-10-05T14:07:24Z</time>
      </trkpt>
      <trkpt lat="44.81011" lon="-0.34575">
        <ele>50</ele>
        <time>2013-10-05T14:07:38Z</time>
      </trkpt>
      <trkpt lat="44.80996" lon="-0.34569">
        <ele>50</ele>
        <time>2013-10-05T14:07:46Z</time>
      </trkpt>
      <trkpt lat="44.80977" lon="-0.3455">
        <ele>48</ele>
        <time>2013-10-05T14:07:54Z</time>
      </trkpt>
      <trkpt lat="44.8095" lon="-0.34534">
        <ele>51</ele>
        <time>2013-10-05T14:08:02Z</time>
      </trkpt>
      <trkpt lat="44.8093" lon="-0.34526">
        <ele>54</ele>
        <time>2013-10-05T14:08:11Z</time>
      </trkpt>
      <trkpt lat="44.80907" lon="-0.34518">
        <ele>54</ele>
        <time>2013-10-05T14:08:22Z</time>
      </trkpt>
      <trkpt lat="44.8088" lon="-0.34509">
        <ele>55</ele>
        <time>2013-10-05T14:08:32Z</time>
      </trkpt>
      <trkpt lat="44.80851" lon="-0.34508">
        <ele>54</ele>
        <time>2013-10-05T14:08:40Z</time>
      </trkpt>
      <trkpt lat="44.80807" lon="-0.34511">
        <ele>53</ele>
        <time>2013-10-05T14:08:52Z</time>
      </trkpt>
      <trkpt lat="44.80788" lon="-0.34503">
        <ele>52</ele>
        <time>2013-10-05T14:08:57Z</time>
      </trkpt>
      <trkpt lat="44.80761" lon="-0.34482">
        <ele>51</ele>
        <time>2013-10-05T14:09:05Z</time>
      </trkpt>
      <trkpt lat="44.80729" lon="-0.34451">
        <ele>51</ele>
        <time>2013-10-05T14:09:12Z</time>
      </trkpt>
      <trkpt lat="44.80701" lon="-0.34426">
        <ele>53</ele>
        <time>2013-10-05T14:09:19Z</time>
      </trkpt>
      <trkpt lat="44.80677" lon="-0.34404">
        <ele>55</ele>
        <time>2013-10-05T14:09:28Z</time>
      </trkpt>
      <trkpt lat="44.80657" lon="-0.34391">
        <ele>55</ele>
        <time>2013-10-05T14:09:36Z</time>
      </trkpt>
      <trkpt lat="44.8064" lon="-0.34368">
        <ele>55</ele>
        <time>2013-10-05T14:09:45Z</time>
      </trkpt>
      <trkpt lat="44.80631" lon="-0.34356">
        <ele>55</ele>
        <time>2013-10-05T14:09:52Z</time>
      </trkpt>
      <trkpt lat="44.80616" lon="-0.34338">
        <ele>55</ele>
        <time>2013-10-05T14:10:00Z</time>
      </trkpt>
      <trkpt lat="44.80615" lon="-0.34334">
        <ele>55</ele>
        <time>2013-10-05T14:10:06Z</time>
      </trkpt>
      <trkpt lat="44.80611" lon="-0.34327">
        <ele>55</ele>
        <time>2013-10-05T14:10:14Z</time>
      </trkpt>
      <trkpt lat="44.80596" lon="-0.34304">
        <ele>53</ele>
        <time>2013-10-05T14:10:21Z</time>
      </trkpt>
      <trkpt lat="44.80574" lon="-0.34267">
        <ele>50</ele>
        <time>2013-10-05T14:10:27Z</time>
      </trkpt>
      <trkpt lat="44.80542" lon="-0.34199">
        <ele>49</ele>
        <time>2013-10-05T14:10:34Z</time>
      </trkpt>
      <trkpt lat="44.8052" lon="-0.34155">
        <ele>51</ele>
        <time>2013-10-05T14:10:40Z</time>
      </trkpt>
      <trkpt lat="44.80499" lon="-0.3412">
        <ele>54</ele>
        <time>2013-10-05T14:10:47Z</time>
      </trkpt>
      <trkpt lat="44.80484" lon="-0.34087">
        <ele>56</ele>
        <time>2013-10-05T14:10:55Z</time>
      </trkpt>
      <trkpt lat="44.80477" lon="-0.34072">
        <ele>57</ele>
        <time>2013-10-05T14:11:02Z</time>
      </trkpt>
      <trkpt lat="44.8047" lon="-0.34058">
        <ele>57</ele>
        <time>2013-10-05T14:11:10Z</time>
      </trkpt>
      <trkpt lat="44.80465" lon="-0.34045">
        <ele>57</ele>
        <time>2013-10-05T14:11:19Z</time>
      </trkpt>
      <trkpt lat="44.80456" lon="-0.34032">
        <ele>56</ele>
        <time>2013-10-05T14:11:26Z</time>
      </trkpt>
      <trkpt lat="44.80436" lon="-0.34002">
        <ele>53</ele>
        <time>2013-10-05T14:11:34Z</time>
      </trkpt>
      <trkpt lat="44.80411" lon="-0.33961">
        <ele>51</ele>
        <time>2013-10-05T14:11:40Z</time>
      </trkpt>
      <trkpt lat="44.80396" lon="-0.3394">
        <ele>51</ele>
        <time>2013-10-05T14:11:43Z</time>
      </trkpt>
      <trkpt lat="44.8039" lon="-0.33935">
        <ele>52</ele>
        <time>2013-10-05T14:11:44Z</time>
      </trkpt>
      <trkpt lat="44.80367" lon="-0.33918">
        <ele>53</ele>
        <time>2013-10-05T14:11:49Z</time>
      </trkpt>
      <trkpt lat="44.80346" lon="-0.33902">
        <ele>56</ele>
        <time>2013-10-05T14:11:56Z</time>
      </trkpt>
      <trkpt lat="44.80321" lon="-0.33885">
        <ele>59</ele>
        <time>2013-10-05T14:12:05Z</time>
      </trkpt>
      <trkpt lat="44.80309" lon="-0.33877">
        <ele>60</ele>
        <time>2013-10-05T14:12:12Z</time>
      </trkpt>
      <trkpt lat="44.80297" lon="-0.33868">
        <ele>60</ele>
        <time>2013-10-05T14:12:22Z</time>
      </trkpt>
      <trkpt lat="44.80292" lon="-0.33864">
        <ele>61</ele>
        <time>2013-10-05T14:12:30Z</time>
      </trkpt>
      <trkpt lat="44.80292" lon="-0.33864">
        <ele>61</ele>
        <time>2013-10-05T14:12:46Z</time>
      </trkpt>
      <trkpt lat="44.80291" lon="-0.33864">
        <ele>60</ele>
        <time>2013-10-05T14:13:06Z</time>
      </trkpt>
      <trkpt lat="44.80291" lon="-0.33863">
        <ele>61</ele>
        <time>2013-10-05T14:13:08Z</time>
      </trkpt>
      <trkpt lat="44.8029" lon="-0.33861">
        <ele>61</ele>
        <time>2013-10-05T14:13:09Z</time>
      </trkpt>
      <trkpt lat="44.8029" lon="-0.3386">
        <ele>61</ele>
        <time>2013-10-05T14:13:10Z</time>
      </trkpt>
      <trkpt lat="44.8029" lon="-0.33858">
        <ele>61</ele>
        <time>2013-10-05T14:13:11Z</time>
      </trkpt>
      <trkpt lat="44.8029" lon="-0.33856">
        <ele>61</ele>
        <time>2013-10-05T14:13:12Z</time>
      </trkpt>
      <trkpt lat="44.8029" lon="-0.33855">
        <ele>61</ele>
        <time>2013-10-05T14:13:13Z</time>
      </trkpt>
      <trkpt lat="44.80299" lon="-0.33838">
        <ele>62</ele>
        <time>2013-10-05T14:13:25Z</time>
      </trkpt>
      <trkpt lat="44.80309" lon="-0.3382">
        <ele>64</ele>
        <time>2013-10-05T14:13:34Z</time>
      </trkpt>
      <trkpt lat="44.80319" lon="-0.33801">
        <ele>65</ele>
        <time>2013-10-05T14:13:43Z</time>
      </trkpt>
      <trkpt lat="44.80331" lon="-0.33776">
        <ele>67</ele>
        <time>2013-10-05T14:13:53Z</time>
      </trkpt>
      <trkpt lat="44.8034" lon="-0.33761">
        <ele>69</ele>
        <time>2013-10-05T14:14:00Z</time>
      </trkpt>
      <trkpt lat="44.80347" lon="-0.33746">
        <ele>69</ele>
        <time>2013-10-05T14:14:07Z</time>
      </trkpt>
      <trkpt lat="44.80348" lon="-0.33739">
        <ele>70</ele>
        <time>2013-10-05T14:14:10Z</time>
      </trkpt>
      <trkpt lat="44.80347" lon="-0.33736">
        <ele>70</ele>
        <time>2013-10-05T14:14:11Z</time>
      </trkpt>
      <trkpt lat="44.80347" lon="-0.33732">
        <ele>70</ele>
        <time>2013-10-05T14:14:12Z</time>
      </trkpt>
      <trkpt lat="44.80339" lon="-0.33709">
        <ele>70</ele>
        <time>2013-10-05T14:14:22Z</time>
      </trkpt>
      <trkpt lat="44.80326" lon="-0.33678">
        <ele>71</ele>
        <time>2013-10-05T14:14:34Z</time>
      </trkpt>
      <trkpt lat="44.80314" lon="-0.33654">
        <ele>72</ele>
        <time>2013-10-05T14:14:45Z</time>
      </trkpt>
      <trkpt lat="44.803" lon="-0.33632">
        <ele>72</ele>
        <time>2013-10-05T14:14:54Z</time>
      </trkpt>
      <trkpt lat="44.80284" lon="-0.33608">
        <ele>72</ele>
        <time>2013-10-05T14:15:03Z</time>
      </trkpt>
      <trkpt lat="44.80273" lon="-0.33581">
        <ele>72</ele>
        <time>2013-10-05T14:15:12Z</time>
      </trkpt>
      <trkpt lat="44.80271" lon="-0.33562">
        <ele>73</ele>
        <time>2013-10-05T14:15:19Z</time>
      </trkpt>
      <trkpt lat="44.8027" lon="-0.33545">
        <ele>75</ele>
        <time>2013-10-05T14:15:26Z</time>
      </trkpt>
      <trkpt lat="44.80269" lon="-0.33525">
        <ele>76</ele>
        <time>2013-10-05T14:15:35Z</time>
      </trkpt>
      <trkpt lat="44.80269" lon="-0.33502">
        <ele>77</ele>
        <time>2013-10-05T14:15:44Z</time>
      </trkpt>
      <trkpt lat="44.80269" lon="-0.33478">
        <ele>79</ele>
        <time>2013-10-05T14:15:54Z</time>
      </trkpt>
      <trkpt lat="44.80267" lon="-0.33459">
        <ele>81</ele>
        <time>2013-10-05T14:16:04Z</time>
      </trkpt>
      <trkpt lat="44.80266" lon="-0.3344">
        <ele>82</ele>
        <time>2013-10-05T14:16:15Z</time>
      </trkpt>
      <trkpt lat="44.80264" lon="-0.33431">
        <ele>82</ele>
        <time>2013-10-05T14:16:20Z</time>
      </trkpt>
      <trkpt lat="44.80264" lon="-0.3343">
        <ele>82</ele>
        <time>2013-10-05T14:16:21Z</time>
      </trkpt>
      <trkpt lat="44.80261" lon="-0.33411">
        <ele>83</ele>
        <time>2013-10-05T14:16:31Z</time>
      </trkpt>
      <trkpt lat="44.80262" lon="-0.33394">
        <ele>85</ele>
        <time>2013-10-05T14:16:40Z</time>
      </trkpt>
      <trkpt lat="44.80263" lon="-0.33368">
        <ele>87</ele>
        <time>2013-10-05T14:16:49Z</time>
      </trkpt>
      <trkpt lat="44.8026" lon="-0.3335">
        <ele>88</ele>
        <time>2013-10-05T14:16:57Z</time>
      </trkpt>
      <trkpt lat="44.80262" lon="-0.33337">
        <ele>90</ele>
        <time>2013-10-05T14:17:02Z</time>
      </trkpt>
      <trkpt lat="44.80258" lon="-0.33318">
        <ele>91</ele>
        <time>2013-10-05T14:17:12Z</time>
      </trkpt>
      <trkpt lat="44.80259" lon="-0.33306">
        <ele>92</ele>
        <time>2013-10-05T14:17:21Z</time>
      </trkpt>
      <trkpt lat="44.8026" lon="-0.33289">
        <ele>94</ele>
        <time>2013-10-05T14:17:30Z</time>
      </trkpt>
      <trkpt lat="44.80265" lon="-0.33274">
        <ele>96</ele>
        <time>2013-10-05T14:17:39Z</time>
      </trkpt>
      <trkpt lat="44.80275" lon="-0.33258">
        <ele>98</ele>
        <time>2013-10-05T14:17:47Z</time>
      </trkpt>
      <trkpt lat="44.80287" lon="-0.33245">
        <ele>99</ele>
        <time>2013-10-05T14:17:56Z</time>
      </trkpt>
      <trkpt lat="44.80303" lon="-0.33228">
        <ele>100</ele>
        <time>2013-10-05T14:18:07Z</time>
      </trkpt>
      <trkpt lat="44.80319" lon="-0.33208">
        <ele>100</ele>
        <time>2013-10-05T14:18:15Z</time>
      </trkpt>
      <trkpt lat="44.80345" lon="-0.33165">
        <ele>99</ele>
        <time>2013-10-05T14:18:27Z</time>
      </trkpt>
      <trkpt lat="44.80364" lon="-0.3312">
        <ele>98</ele>
        <time>2013-10-05T14:18:36Z</time>
      </trkpt>
      <trkpt lat="44.80379" lon="-0.33072">
        <ele>98</ele>
        <time>2013-10-05T14:18:45Z</time>
      </trkpt>
      <trkpt lat="44.80391" lon="-0.33029">
        <ele>98</ele>
        <time>2013-10-05T14:18:54Z</time>
      </trkpt>
      <trkpt lat="44.8041" lon="-0.32974">
        <ele>100</ele>
        <time>2013-10-05T14:19:06Z</time>
      </trkpt>
      <trkpt lat="44.80428" lon="-0.32931">
        <ele>101</ele>
        <time>2013-10-05T14:19:17Z</time>
      </trkpt>
      <trkpt lat="44.80439" lon="-0.32908">
        <ele>102</ele>
        <time>2013-10-05T14:19:26Z</time>
      </trkpt>
      <trkpt lat="44.8045" lon="-0.32886">
        <ele>103</ele>
        <time>2013-10-05T14:19:35Z</time>
      </trkpt>
      <trkpt lat="44.80458" lon="-0.32873">
        <ele>103</ele>
        <time>2013-10-05T14:19:42Z</time>
      </trkpt>
      <trkpt lat="44.80467" lon="-0.32861">
        <ele>103</ele>
        <time>2013-10-05T14:19:49Z</time>
      </trkpt>
      <trkpt lat="44.80474" lon="-0.32848">
        <ele>104</ele>
        <time>2013-10-05T14:19:56Z</time>
      </trkpt>
      <trkpt lat="44.80483" lon="-0.32834">
        <ele>104</ele>
        <time>2013-10-05T14:20:04Z</time>
      </trkpt>
      <trkpt lat="44.80484" lon="-0.32834">
        <ele>104</ele>
        <time>2013-10-05T14:20:05Z</time>
      </trkpt>
      <trkpt lat="44.80485" lon="-0.32833">
        <ele>104</ele>
        <time>2013-10-05T14:20:06Z</time>
      </trkpt>
      <trkpt lat="44.80485" lon="-0.32831">
        <ele>104</ele>
        <time>2013-10-05T14:20:07Z</time>
      </trkpt>
      <trkpt lat="44.80486" lon="-0.32829">
        <ele>104</ele>
        <time>2013-10-05T14:20:08Z</time>
      </trkpt>
      <trkpt lat="44.80486" lon="-0.32827">
        <ele>104</ele>
        <time>2013-10-05T14:20:09Z</time>
      </trkpt>
      <trkpt lat="44.80487" lon="-0.32826">
        <ele>104</ele>
        <time>2013-10-05T14:20:10Z</time>
      </trkpt>
      <trkpt lat="44.80488" lon="-0.32824">
        <ele>104</ele>
        <time>2013-10-05T14:20:11Z</time>
      </trkpt>
      <trkpt lat="44.80497" lon="-0.3281">
        <ele>105</ele>
        <time>2013-10-05T14:20:19Z</time>
      </trkpt>
      <trkpt lat="44.80509" lon="-0.32792">
        <ele>105</ele>
        <time>2013-10-05T14:20:28Z</time>
      </trkpt>
      <trkpt lat="44.8052" lon="-0.32776">
        <ele>105</ele>
        <time>2013-10-05T14:20:36Z</time>
      </trkpt>
      <trkpt lat="44.80534" lon="-0.32752">
        <ele>105</ele>
        <time>2013-10-05T14:20:43Z</time>
      </trkpt>
      <trkpt lat="44.80547" lon="-0.3271">
        <ele>103</ele>
        <time>2013-10-05T14:20:51Z</time>
      </trkpt>
      <trkpt lat="44.80547" lon="-0.32684">
        <ele>103</ele>
        <time>2013-10-05T14:20:56Z</time>
      </trkpt>
      <trkpt lat="44.80528" lon="-0.32657">
        <ele>105</ele>
        <time>2013-10-05T14:21:03Z</time>
      </trkpt>
      <trkpt lat="44.80501" lon="-0.32623">
        <ele>106</ele>
        <time>2013-10-05T14:21:12Z</time>
      </trkpt>
      <trkpt lat="44.80477" lon="-0.32586">
        <ele>106</ele>
        <time>2013-10-05T14:21:22Z</time>
      </trkpt>
      <trkpt lat="44.80456" lon="-0.3255">
        <ele>105</ele>
        <time>2013-10-05T14:21:31Z</time>
      </trkpt>
      <trkpt lat="44.80427" lon="-0.325">
        <ele>104</ele>
        <time>2013-10-05T14:21:41Z</time>
      </trkpt>
      <trkpt lat="44.80398" lon="-0.32448">
        <ele>102</ele>
        <time>2013-10-05T14:21:49Z</time>
      </trkpt>
      <trkpt lat="44.80356" lon="-0.32379">
        <ele>100</ele>
        <time>2013-10-05T14:21:58Z</time>
      </trkpt>
      <trkpt lat="44.80294" lon="-0.32294">
        <ele>96</ele>
        <time>2013-10-05T14:22:09Z</time>
      </trkpt>
      <trkpt lat="44.80266" lon="-0.3225">
        <ele>96</ele>
        <time>2013-10-05T14:22:15Z</time>
      </trkpt>
      <trkpt lat="44.80263" lon="-0.32242">
        <ele>96</ele>
        <time>2013-10-05T14:22:16Z</time>
      </trkpt>
      <trkpt lat="44.8026" lon="-0.32234">
        <ele>97</ele>
        <time>2013-10-05T14:22:17Z</time>
      </trkpt>
      <trkpt lat="44.80252" lon="-0.32203">
        <ele>99</ele>
        <time>2013-10-05T14:22:22Z</time>
      </trkpt>
      <trkpt lat="44.80251" lon="-0.32195">
        <ele>99</ele>
        <time>2013-10-05T14:22:27Z</time>
      </trkpt>
      <trkpt lat="44.80253" lon="-0.32197">
        <ele>99</ele>
        <time>2013-10-05T14:22:34Z</time>
      </trkpt>
      <trkpt lat="44.80254" lon="-0.32199">
        <ele>99</ele>
        <time>2013-10-05T14:22:35Z</time>
      </trkpt>
      <trkpt lat="44.80254" lon="-0.32201">
        <ele>99</ele>
        <time>2013-10-05T14:22:36Z</time>
      </trkpt>
      <trkpt lat="44.80255" lon="-0.32203">
        <ele>99</ele>
        <time>2013-10-05T14:22:37Z</time>
      </trkpt>
      <trkpt lat="44.80255" lon="-0.32207">
        <ele>99</ele>
        <time>2013-10-05T14:22:38Z</time>
      </trkpt>
      <trkpt lat="44.80254" lon="-0.32219">
        <ele>97</ele>
        <time>2013-10-05T14:22:42Z</time>
      </trkpt>
      <trkpt lat="44.80245" lon="-0.32221">
        <ele>96</ele>
        <time>2013-10-05T14:22:49Z</time>
      </trkpt>
      <trkpt lat="44.80228" lon="-0.32211">
        <ele>96</ele>
        <time>2013-10-05T14:22:58Z</time>
      </trkpt>
      <trkpt lat="44.80212" lon="-0.32195">
        <ele>97</ele>
        <time>2013-10-05T14:23:07Z</time>
      </trkpt>
      <trkpt lat="44.80194" lon="-0.32185">
        <ele>97</ele>
        <time>2013-10-05T14:23:14Z</time>
      </trkpt>
      <trkpt lat="44.80175" lon="-0.3219">
        <ele>96</ele>
        <time>2013-10-05T14:23:20Z</time>
      </trkpt>
      <trkpt lat="44.80145" lon="-0.3221">
        <ele>96</ele>
        <time>2013-10-05T14:23:28Z</time>
      </trkpt>
      <trkpt lat="44.80121" lon="-0.32239">
        <ele>94</ele>
        <time>2013-10-05T14:23:37Z</time>
      </trkpt>
      <trkpt lat="44.80097" lon="-0.32273">
        <ele>92</ele>
        <time>2013-10-05T14:23:48Z</time>
      </trkpt>
      <trkpt lat="44.80069" lon="-0.32312">
        <ele>91</ele>
        <time>2013-10-05T14:24:00Z</time>
      </trkpt>
      <trkpt lat="44.80046" lon="-0.32342">
        <ele>90</ele>
        <time>2013-10-05T14:24:07Z</time>
      </trkpt>
      <trkpt lat="44.80028" lon="-0.32374">
        <ele>88</ele>
        <time>2013-10-05T14:24:15Z</time>
      </trkpt>
      <trkpt lat="44.80007" lon="-0.32409">
        <ele>88</ele>
        <time>2013-10-05T14:24:23Z</time>
      </trkpt>
      <trkpt lat="44.7998" lon="-0.32449">
        <ele>88</ele>
        <time>2013-10-05T14:24:32Z</time>
      </trkpt>
      <trkpt lat="44.79975" lon="-0.32479">
        <ele>87</ele>
        <time>2013-10-05T14:24:40Z</time>
      </trkpt>
      <trkpt lat="44.79975" lon="-0.325">
        <ele>86</ele>
        <time>2013-10-05T14:24:43Z</time>
      </trkpt>
      <trkpt lat="44.79966" lon="-0.32541">
        <ele>83</ele>
        <time>2013-10-05T14:24:50Z</time>
      </trkpt>
      <trkpt lat="44.79948" lon="-0.32571">
        <ele>82</ele>
        <time>2013-10-05T14:24:57Z</time>
      </trkpt>
      <trkpt lat="44.79934" lon="-0.32589">
        <ele>82</ele>
        <time>2013-10-05T14:25:02Z</time>
      </trkpt>
      <trkpt lat="44.79886" lon="-0.32611">
        <ele>83</ele>
        <time>2013-10-05T14:25:10Z</time>
      </trkpt>
      <trkpt lat="44.79866" lon="-0.32625">
        <ele>84</ele>
        <time>2013-10-05T14:25:14Z</time>
      </trkpt>
      <trkpt lat="44.79834" lon="-0.32663">
        <ele>83</ele>
        <time>2013-10-05T14:25:23Z</time>
      </trkpt>
      <trkpt lat="44.79816" lon="-0.32682">
        <ele>84</ele>
        <time>2013-10-05T14:25:29Z</time>
      </trkpt>
      <trkpt lat="44.79799" lon="-0.32708">
        <ele>83</ele>
        <time>2013-10-05T14:25:36Z</time>
      </trkpt>
      <trkpt lat="44.79775" lon="-0.32748">
        <ele>80</ele>
        <time>2013-10-05T14:25:42Z</time>
      </trkpt>
      <trkpt lat="44.79737" lon="-0.3281">
        <ele>74</ele>
        <time>2013-10-05T14:25:52Z</time>
      </trkpt>
      <trkpt lat="44.7973" lon="-0.32827">
        <ele>73</ele>
        <time>2013-10-05T14:25:55Z</time>
      </trkpt>
      <trkpt lat="44.79728" lon="-0.32833">
        <ele>72</ele>
        <time>2013-10-05T14:25:56Z</time>
      </trkpt>
      <trkpt lat="44.79727" lon="-0.32839">
        <ele>72</ele>
        <time>2013-10-05T14:25:57Z</time>
      </trkpt>
      <trkpt lat="44.79726" lon="-0.32846">
        <ele>71</ele>
        <time>2013-10-05T14:25:58Z</time>
      </trkpt>
      <trkpt lat="44.79726" lon="-0.32853">
        <ele>71</ele>
        <time>2013-10-05T14:25:59Z</time>
      </trkpt>
      <trkpt lat="44.79726" lon="-0.32904">
        <ele>66</ele>
        <time>2013-10-05T14:26:07Z</time>
      </trkpt>
      <trkpt lat="44.7972" lon="-0.32962">
        <ele>62</ele>
        <time>2013-10-05T14:26:17Z</time>
      </trkpt>
      <trkpt lat="44.79708" lon="-0.33028">
        <ele>57</ele>
        <time>2013-10-05T14:26:28Z</time>
      </trkpt>
      <trkpt lat="44.79704" lon="-0.33065">
        <ele>55</ele>
        <time>2013-10-05T14:26:35Z</time>
      </trkpt>
      <trkpt lat="44.79709" lon="-0.33102">
        <ele>53</ele>
        <time>2013-10-05T14:26:42Z</time>
      </trkpt>
      <trkpt lat="44.7972" lon="-0.33133">
        <ele>52</ele>
        <time>2013-10-05T14:26:49Z</time>
      </trkpt>
      <trkpt lat="44.79728" lon="-0.3314">
        <ele>52</ele>
        <time>2013-10-05T14:26:57Z</time>
      </trkpt>
      <trkpt lat="44.79732" lon="-0.33141">
        <ele>52</ele>
        <time>2013-10-05T14:27:07Z</time>
      </trkpt>
      <trkpt lat="44.79734" lon="-0.33142">
        <ele>52</ele>
        <time>2013-10-05T14:27:20Z</time>
      </trkpt>
      <trkpt lat="44.79734" lon="-0.33142">
        <ele>52</ele>
        <time>2013-10-05T14:27:36Z</time>
      </trkpt>
      <trkpt lat="44.79735" lon="-0.33144">
        <ele>52</ele>
        <time>2013-10-05T14:27:45Z</time>
      </trkpt>
      <trkpt lat="44.79735" lon="-0.33143">
        <ele>52</ele>
        <time>2013-10-05T14:27:57Z</time>
      </trkpt>
      <trkpt lat="44.79735" lon="-0.33142">
        <ele>52</ele>
        <time>2013-10-05T14:28:13Z</time>
      </trkpt>
      <trkpt lat="44.79734" lon="-0.33142">
        <ele>52</ele>
        <time>2013-10-05T14:28:29Z</time>
      </trkpt>
      <trkpt lat="44.79735" lon="-0.33141">
        <ele>52</ele>
        <time>2013-10-05T14:28:51Z</time>
      </trkpt>
      <trkpt lat="44.79734" lon="-0.33142">
        <ele>52</ele>
        <time>2013-10-05T14:29:12Z</time>
      </trkpt>
      <trkpt lat="44.79734" lon="-0.33142">
        <ele>52</ele>
        <time>2013-10-05T14:29:24Z</time>
      </trkpt>
      <trkpt lat="44.79735" lon="-0.33144">
        <ele>52</ele>
        <time>2013-10-05T14:29:34Z</time>
      </trkpt>
      <trkpt lat="44.79737" lon="-0.3315">
        <ele>53</ele>
        <time>2013-10-05T14:29:39Z</time>
      </trkpt>
      <trkpt lat="44.79741" lon="-0.33159">
        <ele>53</ele>
        <time>2013-10-05T14:29:43Z</time>
      </trkpt>
      <trkpt lat="44.79754" lon="-0.33181">
        <ele>54</ele>
        <time>2013-10-05T14:29:51Z</time>
      </trkpt>
      <trkpt lat="44.79767" lon="-0.33205">
        <ele>56</ele>
        <time>2013-10-05T14:30:01Z</time>
      </trkpt>
      <trkpt lat="44.79784" lon="-0.33224">
        <ele>59</ele>
        <time>2013-10-05T14:30:11Z</time>
      </trkpt>
      <trkpt lat="44.79792" lon="-0.33237">
        <ele>60</ele>
        <time>2013-10-05T14:30:19Z</time>
      </trkpt>
      <trkpt lat="44.79798" lon="-0.33241">
        <ele>60</ele>
        <time>2013-10-05T14:30:25Z</time>
      </trkpt>
      <trkpt lat="44.79798" lon="-0.33242">
        <ele>60</ele>
        <time>2013-10-05T14:30:26Z</time>
      </trkpt>
      <trkpt lat="44.79798" lon="-0.33244">
        <ele>60</ele>
        <time>2013-10-05T14:30:27Z</time>
      </trkpt>
      <trkpt lat="44.79795" lon="-0.33245">
        <ele>60</ele>
        <time>2013-10-05T14:30:33Z</time>
      </trkpt>
      <trkpt lat="44.79794" lon="-0.33244">
        <ele>60</ele>
        <time>2013-10-05T14:30:42Z</time>
      </trkpt>
      <trkpt lat="44.79794" lon="-0.3324">
        <ele>60</ele>
        <time>2013-10-05T14:30:45Z</time>
      </trkpt>
      <trkpt lat="44.79795" lon="-0.33239">
        <ele>60</ele>
        <time>2013-10-05T14:30:46Z</time>
      </trkpt>
      <trkpt lat="44.79797" lon="-0.3324">
        <ele>60</ele>
        <time>2013-10-05T14:30:47Z</time>
      </trkpt>
      <trkpt lat="44.79801" lon="-0.3325">
        <ele>61</ele>
        <time>2013-10-05T14:30:56Z</time>
      </trkpt>
      <trkpt lat="44.79813" lon="-0.33267">
        <ele>61</ele>
        <time>2013-10-05T14:31:04Z</time>
      </trkpt>
      <trkpt lat="44.79829" lon="-0.33289">
        <ele>60</ele>
        <time>2013-10-05T14:31:12Z</time>
      </trkpt>
      <trkpt lat="44.79855" lon="-0.33326">
        <ele>60</ele>
        <time>2013-10-05T14:31:23Z</time>
      </trkpt>
      <trkpt lat="44.79874" lon="-0.33352">
        <ele>61</ele>
        <time>2013-10-05T14:31:33Z</time>
      </trkpt>
      <trkpt lat="44.79893" lon="-0.33373">
        <ele>62</ele>
        <time>2013-10-05T14:31:44Z</time>
      </trkpt>
      <trkpt lat="44.79908" lon="-0.33395">
        <ele>62</ele>
        <time>2013-10-05T14:31:53Z</time>
      </trkpt>
      <trkpt lat="44.7993" lon="-0.33424">
        <ele>62</ele>
        <time>2013-10-05T14:32:04Z</time>
      </trkpt>
      <trkpt lat="44.79955" lon="-0.33452">
        <ele>62</ele>
        <time>2013-10-05T14:32:14Z</time>
      </trkpt>
      <trkpt lat="44.79979" lon="-0.33482">
        <ele>62</ele>
        <time>2013-10-05T14:32:25Z</time>
      </trkpt>
      <trkpt lat="44.80002" lon="-0.3351">
        <ele>62</ele>
        <time>2013-10-05T14:32:34Z</time>
      </trkpt>
      <trkpt lat="44.80021" lon="-0.33531">
        <ele>62</ele>
        <time>2013-10-05T14:32:42Z</time>
      </trkpt>
      <trkpt lat="44.80032" lon="-0.33545">
        <ele>62</ele>
        <time>2013-10-05T14:32:50Z</time>
      </trkpt>
      <trkpt lat="44.80042" lon="-0.33561">
        <ele>62</ele>
        <time>2013-10-05T14:32:56Z</time>
      </trkpt>
      <trkpt lat="44.80054" lon="-0.33567">
        <ele>62</ele>
        <time>2013-10-05T14:33:03Z</time>
      </trkpt>
      <trkpt lat="44.80063" lon="-0.33551">
        <ele>63</ele>
        <time>2013-10-05T14:33:10Z</time>
      </trkpt>
      <trkpt lat="44.80082" lon="-0.33522">
        <ele>65</ele>
        <time>2013-10-05T14:33:18Z</time>
      </trkpt>
      <trkpt lat="44.80099" lon="-0.33491">
        <ele>67</ele>
        <time>2013-10-05T14:33:28Z</time>
      </trkpt>
      <trkpt lat="44.80107" lon="-0.33482">
        <ele>67</ele>
        <time>2013-10-05T14:33:32Z</time>
      </trkpt>
      <trkpt lat="44.80118" lon="-0.33485">
        <ele>67</ele>
        <time>2013-10-05T14:33:37Z</time>
      </trkpt>
      <trkpt lat="44.80141" lon="-0.33506">
        <ele>65</ele>
        <time>2013-10-05T14:33:46Z</time>
      </trkpt>
      <trkpt lat="44.80174" lon="-0.33534">
        <ele>66</ele>
        <time>2013-10-05T14:33:55Z</time>
      </trkpt>
      <trkpt lat="44.80185" lon="-0.33545">
        <ele>66</ele>
        <time>2013-10-05T14:34:01Z</time>
      </trkpt>
      <trkpt lat="44.80199" lon="-0.33553">
        <ele>67</ele>
        <time>2013-10-05T14:34:10Z</time>
      </trkpt>
      <trkpt lat="44.80204" lon="-0.33557">
        <ele>67</ele>
        <time>2013-10-05T14:34:14Z</time>
      </trkpt>
      <trkpt lat="44.80222" lon="-0.33559">
        <ele>68</ele>
        <time>2013-10-05T14:34:25Z</time>
      </trkpt>
      <trkpt lat="44.80239" lon="-0.3356">
        <ele>70</ele>
        <time>2013-10-05T14:34:33Z</time>
      </trkpt>
      <trkpt lat="44.80252" lon="-0.33555">
        <ele>72</ele>
        <time>2013-10-05T14:34:40Z</time>
      </trkpt>
      <trkpt lat="44.80269" lon="-0.33557">
        <ele>74</ele>
        <time>2013-10-05T14:34:49Z</time>
      </trkpt>
      <trkpt lat="44.80276" lon="-0.33563">
        <ele>74</ele>
        <time>2013-10-05T14:34:56Z</time>
      </trkpt>
      <trkpt lat="44.80276" lon="-0.33571">
        <ele>73</ele>
        <time>2013-10-05T14:35:00Z</time>
      </trkpt>
      <trkpt lat="44.80279" lon="-0.33592">
        <ele>72</ele>
        <time>2013-10-05T14:35:12Z</time>
      </trkpt>
      <trkpt lat="44.80285" lon="-0.33607">
        <ele>72</ele>
        <time>2013-10-05T14:35:23Z</time>
      </trkpt>
      <trkpt lat="44.80293" lon="-0.33618">
        <ele>72</ele>
        <time>2013-10-05T14:35:36Z</time>
      </trkpt>
      <trkpt lat="44.80302" lon="-0.33632">
        <ele>72</ele>
        <time>2013-10-05T14:35:45Z</time>
      </trkpt>
      <trkpt lat="44.80317" lon="-0.33654">
        <ele>72</ele>
        <time>2013-10-05T14:35:54Z</time>
      </trkpt>
      <trkpt lat="44.8033" lon="-0.33678">
        <ele>71</ele>
        <time>2013-10-05T14:36:02Z</time>
      </trkpt>
      <trkpt lat="44.80343" lon="-0.3371">
        <ele>70</ele>
        <time>2013-10-05T14:36:10Z</time>
      </trkpt>
      <trkpt lat="44.80353" lon="-0.3374">
        <ele>70</ele>
        <time>2013-10-05T14:36:17Z</time>
      </trkpt>
      <trkpt lat="44.80349" lon="-0.33757">
        <ele>69</ele>
        <time>2013-10-05T14:36:22Z</time>
      </trkpt>
      <trkpt lat="44.8033" lon="-0.33791">
        <ele>67</ele>
        <time>2013-10-05T14:36:32Z</time>
      </trkpt>
      <trkpt lat="44.80312" lon="-0.33827">
        <ele>64</ele>
        <time>2013-10-05T14:36:41Z</time>
      </trkpt>
      <trkpt lat="44.80294" lon="-0.33857">
        <ele>61</ele>
        <time>2013-10-05T14:36:48Z</time>
      </trkpt>
      <trkpt lat="44.80271" lon="-0.33903">
        <ele>58</ele>
        <time>2013-10-05T14:36:54Z</time>
      </trkpt>
      <trkpt lat="44.80235" lon="-0.33981">
        <ele>52</ele>
        <time>2013-10-05T14:37:02Z</time>
      </trkpt>
      <trkpt lat="44.80208" lon="-0.34044">
        <ele>47</ele>
        <time>2013-10-05T14:37:09Z</time>
      </trkpt>
      <trkpt lat="44.80205" lon="-0.34053">
        <ele>47</ele>
        <time>2013-10-05T14:37:10Z</time>
      </trkpt>
      <trkpt lat="44.80202" lon="-0.34062">
        <ele>46</ele>
        <time>2013-10-05T14:37:11Z</time>
      </trkpt>
      <trkpt lat="44.802" lon="-0.34072">
        <ele>46</ele>
        <time>2013-10-05T14:37:12Z</time>
      </trkpt>
      <trkpt lat="44.80193" lon="-0.34134">
        <ele>44</ele>
        <time>2013-10-05T14:37:18Z</time>
      </trkpt>
      <trkpt lat="44.80187" lon="-0.342">
        <ele>44</ele>
        <time>2013-10-05T14:37:26Z</time>
      </trkpt>
      <trkpt lat="44.80174" lon="-0.34245">
        <ele>45</ele>
        <time>2013-10-05T14:37:33Z</time>
      </trkpt>
      <trkpt lat="44.80167" lon="-0.34267">
        <ele>46</ele>
        <time>2013-10-05T14:37:37Z</time>
      </trkpt>
      <trkpt lat="44.80166" lon="-0.34273">
        <ele>46</ele>
        <time>2013-10-05T14:37:38Z</time>
      </trkpt>
      <trkpt lat="44.80166" lon="-0.34279">
        <ele>47</ele>
        <time>2013-10-05T14:37:39Z</time>
      </trkpt>
      <trkpt lat="44.80166" lon="-0.34284">
        <ele>47</ele>
        <time>2013-10-05T14:37:40Z</time>
      </trkpt>
      <trkpt lat="44.80167" lon="-0.34288">
        <ele>47</ele>
        <time>2013-10-05T14:37:41Z</time>
      </trkpt>
      <trkpt lat="44.80169" lon="-0.34291">
        <ele>47</ele>
        <time>2013-10-05T14:37:42Z</time>
      </trkpt>
      <trkpt lat="44.80172" lon="-0.34291">
        <ele>47</ele>
        <time>2013-10-05T14:37:43Z</time>
      </trkpt>
      <trkpt lat="44.80175" lon="-0.34291">
        <ele>47</ele>
        <time>2013-10-05T14:37:44Z</time>
      </trkpt>
      <trkpt lat="44.80178" lon="-0.3429">
        <ele>47</ele>
        <time>2013-10-05T14:37:45Z</time>
      </trkpt>
      <trkpt lat="44.80181" lon="-0.34289">
        <ele>47</ele>
        <time>2013-10-05T14:37:46Z</time>
      </trkpt>
      <trkpt lat="44.80205" lon="-0.34285">
        <ele>47</ele>
        <time>2013-10-05T14:37:53Z</time>
      </trkpt>
      <trkpt lat="44.80235" lon="-0.34291">
        <ele>47</ele>
        <time>2013-10-05T14:38:02Z</time>
      </trkpt>
      <trkpt lat="44.80251" lon="-0.34303">
        <ele>48</ele>
        <time>2013-10-05T14:38:10Z</time>
      </trkpt>
      <trkpt lat="44.8027" lon="-0.34319">
        <ele>49</ele>
        <time>2013-10-05T14:38:19Z</time>
      </trkpt>
      <trkpt lat="44.80285" lon="-0.34346">
        <ele>51</ele>
        <time>2013-10-05T14:38:28Z</time>
      </trkpt>
      <trkpt lat="44.80304" lon="-0.34377">
        <ele>52</ele>
        <time>2013-10-05T14:38:38Z</time>
      </trkpt>
      <trkpt lat="44.80318" lon="-0.34404">
        <ele>52</ele>
        <time>2013-10-05T14:38:49Z</time>
      </trkpt>
      <trkpt lat="44.80321" lon="-0.34411">
        <ele>52</ele>
        <time>2013-10-05T14:38:52Z</time>
      </trkpt>
      <trkpt lat="44.80321" lon="-0.34414">
        <ele>53</ele>
        <time>2013-10-05T14:38:53Z</time>
      </trkpt>
      <trkpt lat="44.80321" lon="-0.34417">
        <ele>53</ele>
        <time>2013-10-05T14:38:54Z</time>
      </trkpt>
      <trkpt lat="44.8032" lon="-0.34419">
        <ele>53</ele>
        <time>2013-10-05T14:38:55Z</time>
      </trkpt>
      <trkpt lat="44.80318" lon="-0.34421">
        <ele>53</ele>
        <time>2013-10-05T14:38:56Z</time>
      </trkpt>
      <trkpt lat="44.80317" lon="-0.34423">
        <ele>53</ele>
        <time>2013-10-05T14:38:57Z</time>
      </trkpt>
      <trkpt lat="44.80315" lon="-0.34425">
        <ele>53</ele>
        <time>2013-10-05T14:38:58Z</time>
      </trkpt>
      <trkpt lat="44.80314" lon="-0.34428">
        <ele>53</ele>
        <time>2013-10-05T14:38:59Z</time>
      </trkpt>
      <trkpt lat="44.80297" lon="-0.34453">
        <ele>54</ele>
        <time>2013-10-05T14:39:09Z</time>
      </trkpt>
      <trkpt lat="44.80276" lon="-0.3448">
        <ele>55</ele>
        <time>2013-10-05T14:39:19Z</time>
      </trkpt>
      <trkpt lat="44.80252" lon="-0.34513">
        <ele>57</ele>
        <time>2013-10-05T14:39:30Z</time>
      </trkpt>
      <trkpt lat="44.80228" lon="-0.34545">
        <ele>58</ele>
        <time>2013-10-05T14:39:41Z</time>
      </trkpt>
      <trkpt lat="44.80206" lon="-0.34573">
        <ele>60</ele>
        <time>2013-10-05T14:39:51Z</time>
      </trkpt>
      <trkpt lat="44.80178" lon="-0.34608">
        <ele>61</ele>
        <time>2013-10-05T14:40:05Z</time>
      </trkpt>
      <trkpt lat="44.8016" lon="-0.34635">
        <ele>62</ele>
        <time>2013-10-05T14:40:16Z</time>
      </trkpt>
      <trkpt lat="44.80143" lon="-0.34655">
        <ele>62</ele>
        <time>2013-10-05T14:40:25Z</time>
      </trkpt>
      <trkpt lat="44.80126" lon="-0.34676">
        <ele>63</ele>
        <time>2013-10-05T14:40:35Z</time>
      </trkpt>
      <trkpt lat="44.80106" lon="-0.34701">
        <ele>64</ele>
        <time>2013-10-05T14:40:45Z</time>
      </trkpt>
      <trkpt lat="44.80085" lon="-0.34725">
        <ele>65</ele>
        <time>2013-10-05T14:40:56Z</time>
      </trkpt>
      <trkpt lat="44.80066" lon="-0.34747">
        <ele>66</ele>
        <time>2013-10-05T14:41:07Z</time>
      </trkpt>
      <trkpt lat="44.80045" lon="-0.34768">
        <ele>65</ele>
        <time>2013-10-05T14:41:16Z</time>
      </trkpt>
      <trkpt lat="44.80028" lon="-0.34778">
        <ele>64</ele>
        <time>2013-10-05T14:41:20Z</time>
      </trkpt>
      <trkpt lat="44.79996" lon="-0.34794">
        <ele>61</ele>
        <time>2013-10-05T14:41:25Z</time>
      </trkpt>
      <trkpt lat="44.79952" lon="-0.34803">
        <ele>56</ele>
        <time>2013-10-05T14:41:30Z</time>
      </trkpt>
      <trkpt lat="44.79882" lon="-0.34803">
        <ele>55</ele>
        <time>2013-10-05T14:41:38Z</time>
      </trkpt>
      <trkpt lat="44.79854" lon="-0.34806">
        <ele>56</ele>
        <time>2013-10-05T14:41:43Z</time>
      </trkpt>
      <trkpt lat="44.7985" lon="-0.34807">
        <ele>56</ele>
        <time>2013-10-05T14:41:44Z</time>
      </trkpt>
      <trkpt lat="44.79828" lon="-0.34819">
        <ele>57</ele>
        <time>2013-10-05T14:41:51Z</time>
      </trkpt>
      <trkpt lat="44.79802" lon="-0.34833">
        <ele>59</ele>
        <time>2013-10-05T14:42:00Z</time>
      </trkpt>
      <trkpt lat="44.79774" lon="-0.34849">
        <ele>60</ele>
        <time>2013-10-05T14:42:10Z</time>
      </trkpt>
      <trkpt lat="44.79749" lon="-0.34869">
        <ele>62</ele>
        <time>2013-10-05T14:42:18Z</time>
      </trkpt>
      <trkpt lat="44.79717" lon="-0.34896">
        <ele>64</ele>
        <time>2013-10-05T14:42:28Z</time>
      </trkpt>
      <trkpt lat="44.79685" lon="-0.34923">
        <ele>66</ele>
        <time>2013-10-05T14:42:38Z</time>
      </trkpt>
      <trkpt lat="44.79664" lon="-0.34931">
        <ele>67</ele>
        <time>2013-10-05T14:42:46Z</time>
      </trkpt>
      <trkpt lat="44.79647" lon="-0.34931">
        <ele>69</ele>
        <time>2013-10-05T14:42:54Z</time>
      </trkpt>
      <trkpt lat="44.7963" lon="-0.34925">
        <ele>70</ele>
        <time>2013-10-05T14:43:03Z</time>
      </trkpt>
      <trkpt lat="44.79615" lon="-0.34923">
        <ele>72</ele>
        <time>2013-10-05T14:43:13Z</time>
      </trkpt>
      <trkpt lat="44.79598" lon="-0.3493">
        <ele>74</ele>
        <time>2013-10-05T14:43:25Z</time>
      </trkpt>
      <trkpt lat="44.79593" lon="-0.34935">
        <ele>75</ele>
        <time>2013-10-05T14:43:29Z</time>
      </trkpt>
      <trkpt lat="44.79591" lon="-0.34937">
        <ele>75</ele>
        <time>2013-10-05T14:43:30Z</time>
      </trkpt>
      <trkpt lat="44.79576" lon="-0.34953">
        <ele>77</ele>
        <time>2013-10-05T14:43:40Z</time>
      </trkpt>
      <trkpt lat="44.79562" lon="-0.34958">
        <ele>79</ele>
        <time>2013-10-05T14:43:50Z</time>
      </trkpt>
      <trkpt lat="44.79546" lon="-0.3496">
        <ele>81</ele>
        <time>2013-10-05T14:44:00Z</time>
      </trkpt>
      <trkpt lat="44.79533" lon="-0.3496">
        <ele>83</ele>
        <time>2013-10-05T14:44:09Z</time>
      </trkpt>
      <trkpt lat="44.79519" lon="-0.34957">
        <ele>85</ele>
        <time>2013-10-05T14:44:19Z</time>
      </trkpt>
      <trkpt lat="44.79514" lon="-0.34955">
        <ele>85</ele>
        <time>2013-10-05T14:44:23Z</time>
      </trkpt>
      <trkpt lat="44.79499" lon="-0.34952">
        <ele>87</ele>
        <time>2013-10-05T14:44:34Z</time>
      </trkpt>
      <trkpt lat="44.79488" lon="-0.34953">
        <ele>88</ele>
        <time>2013-10-05T14:44:43Z</time>
      </trkpt>
      <trkpt lat="44.79487" lon="-0.34954">
        <ele>89</ele>
        <time>2013-10-05T14:44:44Z</time>
      </trkpt>
      <trkpt lat="44.79481" lon="-0.34972">
        <ele>90</ele>
        <time>2013-10-05T14:44:54Z</time>
      </trkpt>
      <trkpt lat="44.7948" lon="-0.3498">
        <ele>90</ele>
        <time>2013-10-05T14:44:59Z</time>
      </trkpt>
      <trkpt lat="44.79479" lon="-0.34982">
        <ele>90</ele>
        <time>2013-10-05T14:45:00Z</time>
      </trkpt>
      <trkpt lat="44.79479" lon="-0.34984">
        <ele>90</ele>
        <time>2013-10-05T14:45:01Z</time>
      </trkpt>
      <trkpt lat="44.79479" lon="-0.34986">
        <ele>90</ele>
        <time>2013-10-05T14:45:02Z</time>
      </trkpt>
      <trkpt lat="44.79478" lon="-0.34988">
        <ele>91</ele>
        <time>2013-10-05T14:45:03Z</time>
      </trkpt>
      <trkpt lat="44.79478" lon="-0.3499">
        <ele>91</ele>
        <time>2013-10-05T14:45:04Z</time>
      </trkpt>
      <trkpt lat="44.79477" lon="-0.34993">
        <ele>91</ele>
        <time>2013-10-05T14:45:05Z</time>
      </trkpt>
      <trkpt lat="44.79477" lon="-0.34995">
        <ele>91</ele>
        <time>2013-10-05T14:45:06Z</time>
      </trkpt>
      <trkpt lat="44.79477" lon="-0.34997">
        <ele>91</ele>
        <time>2013-10-05T14:45:07Z</time>
      </trkpt>
      <trkpt lat="44.79472" lon="-0.35021">
        <ele>91</ele>
        <time>2013-10-05T14:45:18Z</time>
      </trkpt>
      <trkpt lat="44.79468" lon="-0.35048">
        <ele>91</ele>
        <time>2013-10-05T14:45:29Z</time>
      </trkpt>
      <trkpt lat="44.79466" lon="-0.35076">
        <ele>92</ele>
        <time>2013-10-05T14:45:40Z</time>
      </trkpt>
      <trkpt lat="44.79464" lon="-0.35103">
        <ele>93</ele>
        <time>2013-10-05T14:45:52Z</time>
      </trkpt>
      <trkpt lat="44.79472" lon="-0.35142">
        <ele>94</ele>
        <time>2013-10-05T14:46:06Z</time>
      </trkpt>
      <trkpt lat="44.79477" lon="-0.35175">
        <ele>95</ele>
        <time>2013-10-05T14:46:17Z</time>
      </trkpt>
      <trkpt lat="44.79482" lon="-0.35207">
        <ele>97</ele>
        <time>2013-10-05T14:46:28Z</time>
      </trkpt>
      <trkpt lat="44.79484" lon="-0.35253">
        <ele>98</ele>
        <time>2013-10-05T14:46:42Z</time>
      </trkpt>
      <trkpt lat="44.79481" lon="-0.35289">
        <ele>99</ele>
        <time>2013-10-05T14:46:51Z</time>
      </trkpt>
      <trkpt lat="44.79479" lon="-0.35325">
        <ele>100</ele>
        <time>2013-10-05T14:47:01Z</time>
      </trkpt>
      <trkpt lat="44.79482" lon="-0.35376">
        <ele>101</ele>
        <time>2013-10-05T14:47:14Z</time>
      </trkpt>
      <trkpt lat="44.79481" lon="-0.35413">
        <ele>100</ele>
        <time>2013-10-05T14:47:25Z</time>
      </trkpt>
      <trkpt lat="44.7948" lon="-0.35438">
        <ele>100</ele>
        <time>2013-10-05T14:47:36Z</time>
      </trkpt>
      <trkpt lat="44.79477" lon="-0.35443">
        <ele>100</ele>
        <time>2013-10-05T14:47:40Z</time>
      </trkpt>
      <trkpt lat="44.79476" lon="-0.35443">
        <ele>100</ele>
        <time>2013-10-05T14:47:41Z</time>
      </trkpt>
      <trkpt lat="44.79467" lon="-0.35449">
        <ele>100</ele>
        <time>2013-10-05T14:47:47Z</time>
      </trkpt>
      <trkpt lat="44.79449" lon="-0.35456">
        <ele>100</ele>
        <time>2013-10-05T14:47:56Z</time>
      </trkpt>
      <trkpt lat="44.79432" lon="-0.35462">
        <ele>101</ele>
        <time>2013-10-05T14:48:04Z</time>
      </trkpt>
      <trkpt lat="44.79416" lon="-0.3547">
        <ele>101</ele>
        <time>2013-10-05T14:48:11Z</time>
      </trkpt>
      <trkpt lat="44.79382" lon="-0.35482">
        <ele>101</ele>
        <time>2013-10-05T14:48:21Z</time>
      </trkpt>
      <trkpt lat="44.79344" lon="-0.35496">
        <ele>101</ele>
        <time>2013-10-05T14:48:31Z</time>
      </trkpt>
      <trkpt lat="44.7931" lon="-0.35508">
        <ele>101</ele>
        <time>2013-10-05T14:48:41Z</time>
      </trkpt>
      <trkpt lat="44.79288" lon="-0.35516">
        <ele>101</ele>
        <time>2013-10-05T14:48:48Z</time>
      </trkpt>
      <trkpt lat="44.79262" lon="-0.35525">
        <ele>101</ele>
        <time>2013-10-05T14:48:57Z</time>
      </trkpt>
      <trkpt lat="44.79243" lon="-0.35531">
        <ele>101</ele>
        <time>2013-10-05T14:49:05Z</time>
      </trkpt>
      <trkpt lat="44.79225" lon="-0.35537">
        <ele>102</ele>
        <time>2013-10-05T14:49:12Z</time>
      </trkpt>
      <trkpt lat="44.79197" lon="-0.35546">
        <ele>102</ele>
        <time>2013-10-05T14:49:22Z</time>
      </trkpt>
      <trkpt lat="44.79173" lon="-0.3555">
        <ele>101</ele>
        <time>2013-10-05T14:49:30Z</time>
      </trkpt>
      <trkpt lat="44.79127" lon="-0.35553">
        <ele>101</ele>
        <time>2013-10-05T14:49:44Z</time>
      </trkpt>
      <trkpt lat="44.79104" lon="-0.35553">
        <ele>101</ele>
        <time>2013-10-05T14:49:52Z</time>
      </trkpt>
      <trkpt lat="44.7908" lon="-0.35554">
        <ele>100</ele>
        <time>2013-10-05T14:50:00Z</time>
      </trkpt>
      <trkpt lat="44.79053" lon="-0.35561">
        <ele>99</ele>
        <time>2013-10-05T14:50:09Z</time>
      </trkpt>
      <trkpt lat="44.7905" lon="-0.3556">
        <ele>99</ele>
        <time>2013-10-05T14:50:10Z</time>
      </trkpt>
      <trkpt lat="44.79048" lon="-0.35558">
        <ele>98</ele>
        <time>2013-10-05T14:50:11Z</time>
      </trkpt>
      <trkpt lat="44.79034" lon="-0.35541">
        <ele>98</ele>
        <time>2013-10-05T14:50:18Z</time>
      </trkpt>
      <trkpt lat="44.79014" lon="-0.35513">
        <ele>97</ele>
        <time>2013-10-05T14:50:27Z</time>
      </trkpt>
      <trkpt lat="44.78989" lon="-0.35482">
        <ele>96</ele>
        <time>2013-10-05T14:50:37Z</time>
      </trkpt>
      <trkpt lat="44.78979" lon="-0.35459">
        <ele>96</ele>
        <time>2013-10-05T14:50:44Z</time>
      </trkpt>
      <trkpt lat="44.78963" lon="-0.35437">
        <ele>96</ele>
        <time>2013-10-05T14:50:50Z</time>
      </trkpt>
      <trkpt lat="44.78932" lon="-0.35397">
        <ele>96</ele>
        <time>2013-10-05T14:51:01Z</time>
      </trkpt>
      <trkpt lat="44.78929" lon="-0.35396">
        <ele>96</ele>
        <time>2013-10-05T14:51:03Z</time>
      </trkpt>
      <trkpt lat="44.78924" lon="-0.35404">
        <ele>96</ele>
        <time>2013-10-05T14:51:08Z</time>
      </trkpt>
      <trkpt lat="44.78917" lon="-0.35425">
        <ele>95</ele>
        <time>2013-10-05T14:51:17Z</time>
      </trkpt>
      <trkpt lat="44.78912" lon="-0.3543">
        <ele>94</ele>
        <time>2013-10-05T14:51:25Z</time>
      </trkpt>
      <trkpt lat="44.78911" lon="-0.35432">
        <ele>94</ele>
        <time>2013-10-05T14:51:38Z</time>
      </trkpt>
      <trkpt lat="44.78911" lon="-0.35432">
        <ele>94</ele>
        <time>2013-10-05T14:51:41Z</time>
      </trkpt>
      <trkpt lat="44.78893" lon="-0.35421">
        <ele>94</ele>
        <time>2013-10-05T14:51:50Z</time>
      </trkpt>
      <trkpt lat="44.78867" lon="-0.35404">
        <ele>92</ele>
        <time>2013-10-05T14:52:00Z</time>
      </trkpt>
      <trkpt lat="44.78844" lon="-0.35382">
        <ele>90</ele>
        <time>2013-10-05T14:52:09Z</time>
      </trkpt>
      <trkpt lat="44.78838" lon="-0.35363">
        <ele>90</ele>
        <time>2013-10-05T14:52:17Z</time>
      </trkpt>
      <trkpt lat="44.78831" lon="-0.3534">
        <ele>89</ele>
        <time>2013-10-05T14:52:23Z</time>
      </trkpt>
      <trkpt lat="44.78817" lon="-0.35309">
        <ele>87</ele>
        <time>2013-10-05T14:52:30Z</time>
      </trkpt>
      <trkpt lat="44.78799" lon="-0.35285">
        <ele>86</ele>
        <time>2013-10-05T14:52:37Z</time>
      </trkpt>
      <trkpt lat="44.78771" lon="-0.35258">
        <ele>83</ele>
        <time>2013-10-05T14:52:43Z</time>
      </trkpt>
      <trkpt lat="44.78751" lon="-0.35236">
        <ele>81</ele>
        <time>2013-10-05T14:52:49Z</time>
      </trkpt>
      <trkpt lat="44.78719" lon="-0.35208">
        <ele>75</ele>
        <time>2013-10-05T14:52:58Z</time>
      </trkpt>
      <trkpt lat="44.78689" lon="-0.35157">
        <ele>70</ele>
        <time>2013-10-05T14:53:08Z</time>
      </trkpt>
      <trkpt lat="44.78675" lon="-0.35141">
        <ele>70</ele>
        <time>2013-10-05T14:53:14Z</time>
      </trkpt>
      <trkpt lat="44.7867" lon="-0.35143">
        <ele>69</ele>
        <time>2013-10-05T14:53:21Z</time>
      </trkpt>
      <trkpt lat="44.78668" lon="-0.35144">
        <ele>69</ele>
        <time>2013-10-05T14:53:31Z</time>
      </trkpt>
      <trkpt lat="44.78667" lon="-0.35143">
        <ele>69</ele>
        <time>2013-10-05T14:53:32Z</time>
      </trkpt>
      <trkpt lat="44.78656" lon="-0.35131">
        <ele>70</ele>
        <time>2013-10-05T14:53:42Z</time>
      </trkpt>
      <trkpt lat="44.7865" lon="-0.35125">
        <ele>71</ele>
        <time>2013-10-05T14:53:48Z</time>
      </trkpt>
      <trkpt lat="44.78647" lon="-0.35122">
        <ele>71</ele>
        <time>2013-10-05T14:53:49Z</time>
      </trkpt>
      <trkpt lat="44.78645" lon="-0.35121">
        <ele>72</ele>
        <time>2013-10-05T14:53:50Z</time>
      </trkpt>
      <trkpt lat="44.78642" lon="-0.35119">
        <ele>72</ele>
        <time>2013-10-05T14:53:51Z</time>
      </trkpt>
      <trkpt lat="44.7864" lon="-0.35117">
        <ele>72</ele>
        <time>2013-10-05T14:53:52Z</time>
      </trkpt>
      <trkpt lat="44.78623" lon="-0.35099">
        <ele>75</ele>
        <time>2013-10-05T14:54:02Z</time>
      </trkpt>
      <trkpt lat="44.78608" lon="-0.35088">
        <ele>78</ele>
        <time>2013-10-05T14:54:11Z</time>
      </trkpt>
      <trkpt lat="44.78597" lon="-0.35074">
        <ele>79</ele>
        <time>2013-10-05T14:54:20Z</time>
      </trkpt>
      <trkpt lat="44.78584" lon="-0.35063">
        <ele>82</ele>
        <time>2013-10-05T14:54:30Z</time>
      </trkpt>
      <trkpt lat="44.78575" lon="-0.35051">
        <ele>83</ele>
        <time>2013-10-05T14:54:40Z</time>
      </trkpt>
      <trkpt lat="44.78557" lon="-0.35039">
        <ele>84</ele>
        <time>2013-10-05T14:54:52Z</time>
      </trkpt>
      <trkpt lat="44.78544" lon="-0.35027">
        <ele>86</ele>
        <time>2013-10-05T14:55:03Z</time>
      </trkpt>
      <trkpt lat="44.78532" lon="-0.35012">
        <ele>88</ele>
        <time>2013-10-05T14:55:14Z</time>
      </trkpt>
      <trkpt lat="44.78521" lon="-0.34999">
        <ele>88</ele>
        <time>2013-10-05T14:55:24Z</time>
      </trkpt>
      <trkpt lat="44.78506" lon="-0.34981">
        <ele>90</ele>
        <time>2013-10-05T14:55:37Z</time>
      </trkpt>
      <trkpt lat="44.78495" lon="-0.34968">
        <ele>91</ele>
        <time>2013-10-05T14:55:48Z</time>
      </trkpt>
      <trkpt lat="44.78483" lon="-0.34956">
        <ele>92</ele>
        <time>2013-10-05T14:55:59Z</time>
      </trkpt>
      <trkpt lat="44.78472" lon="-0.3495">
        <ele>92</ele>
        <time>2013-10-05T14:56:10Z</time>
      </trkpt>
      <trkpt lat="44.78461" lon="-0.3494">
        <ele>93</ele>
        <time>2013-10-05T14:56:21Z</time>
      </trkpt>
      <trkpt lat="44.78459" lon="-0.34939">
        <ele>93</ele>
        <time>2013-10-05T14:56:27Z</time>
      </trkpt>
      <trkpt lat="44.78459" lon="-0.34936">
        <ele>93</ele>
        <time>2013-10-05T14:56:31Z</time>
      </trkpt>
      <trkpt lat="44.78461" lon="-0.3493">
        <ele>94</ele>
        <time>2013-10-05T14:56:39Z</time>
      </trkpt>
      <trkpt lat="44.78462" lon="-0.34929">
        <ele>94</ele>
        <time>2013-10-05T14:56:56Z</time>
      </trkpt>
      <trkpt lat="44.78462" lon="-0.3493">
        <ele>93</ele>
        <time>2013-10-05T14:57:19Z</time>
      </trkpt>
      <trkpt lat="44.78462" lon="-0.3493">
        <ele>94</ele>
        <time>2013-10-05T14:57:38Z</time>
      </trkpt>
      <trkpt lat="44.78463" lon="-0.3493">
        <ele>93</ele>
        <time>2013-10-05T14:57:57Z</time>
      </trkpt>
      <trkpt lat="44.78463" lon="-0.34932">
        <ele>93</ele>
        <time>2013-10-05T14:58:16Z</time>
      </trkpt>
      <trkpt lat="44.78462" lon="-0.34934">
        <ele>93</ele>
        <time>2013-10-05T14:58:24Z</time>
      </trkpt>
      <trkpt lat="44.7846" lon="-0.34934">
        <ele>93</ele>
        <time>2013-10-05T14:58:29Z</time>
      </trkpt>
      <trkpt lat="44.78442" lon="-0.34928">
        <ele>94</ele>
        <time>2013-10-05T14:58:39Z</time>
      </trkpt>
      <trkpt lat="44.78424" lon="-0.34926">
        <ele>94</ele>
        <time>2013-10-05T14:58:45Z</time>
      </trkpt>
      <trkpt lat="44.78401" lon="-0.34917">
        <ele>95</ele>
        <time>2013-10-05T14:58:56Z</time>
      </trkpt>
      <trkpt lat="44.78382" lon="-0.34911">
        <ele>96</ele>
        <time>2013-10-05T14:59:06Z</time>
      </trkpt>
      <trkpt lat="44.78365" lon="-0.34906">
        <ele>96</ele>
        <time>2013-10-05T14:59:14Z</time>
      </trkpt>
      <trkpt lat="44.78348" lon="-0.34901">
        <ele>96</ele>
        <time>2013-10-05T14:59:23Z</time>
      </trkpt>
      <trkpt lat="44.78331" lon="-0.34896">
        <ele>96</ele>
        <time>2013-10-05T14:59:32Z</time>
      </trkpt>
      <trkpt lat="44.78314" lon="-0.34888">
        <ele>96</ele>
        <time>2013-10-05T14:59:40Z</time>
      </trkpt>
      <trkpt lat="44.78293" lon="-0.34875">
        <ele>96</ele>
        <time>2013-10-05T14:59:50Z</time>
      </trkpt>
      <trkpt lat="44.78272" lon="-0.34863">
        <ele>96</ele>
        <time>2013-10-05T14:59:59Z</time>
      </trkpt>
      <trkpt lat="44.78251" lon="-0.3485">
        <ele>96</ele>
        <time>2013-10-05T15:00:08Z</time>
      </trkpt>
      <trkpt lat="44.78239" lon="-0.34842">
        <ele>97</ele>
        <time>2013-10-05T15:00:15Z</time>
      </trkpt>
      <trkpt lat="44.78231" lon="-0.3485">
        <ele>97</ele>
        <time>2013-10-05T15:00:20Z</time>
      </trkpt>
      <trkpt lat="44.78206" lon="-0.34869">
        <ele>98</ele>
        <time>2013-10-05T15:00:30Z</time>
      </trkpt>
      <trkpt lat="44.78186" lon="-0.34881">
        <ele>99</ele>
        <time>2013-10-05T15:00:37Z</time>
      </trkpt>
      <trkpt lat="44.78159" lon="-0.34897">
        <ele>100</ele>
        <time>2013-10-05T15:00:46Z</time>
      </trkpt>
      <trkpt lat="44.7813" lon="-0.34917">
        <ele>101</ele>
        <time>2013-10-05T15:00:55Z</time>
      </trkpt>
      <trkpt lat="44.78101" lon="-0.34935">
        <ele>101</ele>
        <time>2013-10-05T15:01:04Z</time>
      </trkpt>
      <trkpt lat="44.78065" lon="-0.34953">
        <ele>101</ele>
        <time>2013-10-05T15:01:14Z</time>
      </trkpt>
      <trkpt lat="44.78037" lon="-0.34964">
        <ele>102</ele>
        <time>2013-10-05T15:01:22Z</time>
      </trkpt>
      <trkpt lat="44.78002" lon="-0.34971">
        <ele>103</ele>
        <time>2013-10-05T15:01:32Z</time>
      </trkpt>
      <trkpt lat="44.77979" lon="-0.34978">
        <ele>103</ele>
        <time>2013-10-05T15:01:39Z</time>
      </trkpt>
      <trkpt lat="44.77947" lon="-0.34992">
        <ele>103</ele>
        <time>2013-10-05T15:01:49Z</time>
      </trkpt>
      <trkpt lat="44.77933" lon="-0.35012">
        <ele>103</ele>
        <time>2013-10-05T15:01:55Z</time>
      </trkpt>
      <trkpt lat="44.77914" lon="-0.35049">
        <ele>103</ele>
        <time>2013-10-05T15:02:04Z</time>
      </trkpt>
      <trkpt lat="44.77894" lon="-0.35054">
        <ele>103</ele>
        <time>2013-10-05T15:02:10Z</time>
      </trkpt>
      <trkpt lat="44.77863" lon="-0.35044">
        <ele>102</ele>
        <time>2013-10-05T15:02:19Z</time>
      </trkpt>
      <trkpt lat="44.77828" lon="-0.35035">
        <ele>102</ele>
        <time>2013-10-05T15:02:28Z</time>
      </trkpt>
      <trkpt lat="44.77824" lon="-0.35034">
        <ele>102</ele>
        <time>2013-10-05T15:02:29Z</time>
      </trkpt>
      <trkpt lat="44.77792" lon="-0.35034">
        <ele>102</ele>
        <time>2013-10-05T15:02:36Z</time>
      </trkpt>
      <trkpt lat="44.77773" lon="-0.35036">
        <ele>101</ele>
        <time>2013-10-05T15:02:40Z</time>
      </trkpt>
      <trkpt lat="44.77769" lon="-0.35037">
        <ele>101</ele>
        <time>2013-10-05T15:02:41Z</time>
      </trkpt>
      <trkpt lat="44.77767" lon="-0.35038">
        <ele>101</ele>
        <time>2013-10-05T15:02:42Z</time>
      </trkpt>
      <trkpt lat="44.77765" lon="-0.3504">
        <ele>101</ele>
        <time>2013-10-05T15:02:43Z</time>
      </trkpt>
      <trkpt lat="44.77764" lon="-0.35041">
        <ele>101</ele>
        <time>2013-10-05T15:02:44Z</time>
      </trkpt>
      <trkpt lat="44.77763" lon="-0.35043">
        <ele>101</ele>
        <time>2013-10-05T15:02:45Z</time>
      </trkpt>
      <trkpt lat="44.77751" lon="-0.35042">
        <ele>101</ele>
        <time>2013-10-05T15:02:51Z</time>
      </trkpt>
      <trkpt lat="44.77738" lon="-0.35034">
        <ele>101</ele>
        <time>2013-10-05T15:02:55Z</time>
      </trkpt>
      <trkpt lat="44.77701" lon="-0.35005">
        <ele>100</ele>
        <time>2013-10-05T15:03:05Z</time>
      </trkpt>
      <trkpt lat="44.77664" lon="-0.34984">
        <ele>98</ele>
        <time>2013-10-05T15:03:15Z</time>
      </trkpt>
    </trkseg>
  </trk>
</gpx>